﻿<?xml version="1.0" encoding="UTF-8" standalone="no" ?>
<gpx xmlns="http://www.topografix.com/GPX/1/1" creator="CompeGPS" version="1.1" xmlns:xsi="http://www.w3.org/2001/XMLSchema-instance" xsi:schemaLocation="http://www.topografix.com/GPX/1/1 http://www.topografix.com/GPX/1/1/gpx.xsd http://www.garmin.com/xmlschemas/GpxExtensions/v3 http://www.garmin.com/xmlschemas/GpxExtensionsv3.xsd http://www.garmin.com/xmlschemas/TrackPointExtension/v1 http://www.garmin.com/xmlschemas/TrackPointExtensionv1.xsd" xmlns:gpxtpx="http://www.garmin.com/xmlschemas/TrackPointExtension/v1">
  <metadata>
    <link href="http://www.compegps.com">
      <text>CompeGPS TEAM, SL</text>
    </link>
    <time>2013-03-18T21:09:05Z</time>
    <bounds maxlat="42.908803" maxlon="1.506225" minlat="42.899155" minlon="1.453390"/>
  </metadata>
<wpt lat="42.899155" lon="1.453491">
  <ele>1250</ele>
  <name>Col de Port</name>
</wpt>
<wpt lat="42.905640" lon="1.457560">
  <ele>1542</ele>
  <name>Roc Blanc</name>
</wpt>
<wpt lat="42.908803" lon="1.469760">
  <ele>1673</ele>
  <name>Roc de Therme</name>
</wpt>
<wpt lat="42.905863" lon="1.486919">
  <ele>1701</ele>
  <name>Sarrat de la Pelade</name>
</wpt>
<wpt lat="42.905607" lon="1.506216">
  <ele>1716</ele>
  <name>Rocher de Batail</name>
</wpt>
  <trk>
    <name>Sarrat de la Pelade - Rocher de Batail</name>
    <trkseg>
      <trkpt lat="42.899155" lon="1.453491">
        <ele>1303.7</ele>
        <time>2013-03-16T07:52:20Z</time>
        <name>Col de Port</name>
      </trkpt>
      <trkpt lat="42.899198" lon="1.453390">
        <ele>1308.5</ele>
        <time>2013-03-16T07:52:56Z</time>
      </trkpt>
      <trkpt lat="42.899297" lon="1.453423">
        <ele>1309.9</ele>
        <time>2013-03-16T07:53:14Z</time>
      </trkpt>
      <trkpt lat="42.899399" lon="1.453463">
        <ele>1292.6</ele>
        <time>2013-03-16T07:53:31Z</time>
      </trkpt>
      <trkpt lat="42.899502" lon="1.453536">
        <ele>1278.2</ele>
        <time>2013-03-16T07:53:44Z</time>
      </trkpt>
      <trkpt lat="42.899594" lon="1.453544">
        <ele>1268.1</ele>
        <time>2013-03-16T07:54:01Z</time>
      </trkpt>
      <trkpt lat="42.899686" lon="1.453594">
        <ele>1265.7</ele>
        <time>2013-03-16T07:54:15Z</time>
      </trkpt>
      <trkpt lat="42.899777" lon="1.453622">
        <ele>1264.3</ele>
        <time>2013-03-16T07:54:28Z</time>
      </trkpt>
      <trkpt lat="42.899868" lon="1.453625">
        <ele>1264.8</ele>
        <time>2013-03-16T07:54:43Z</time>
      </trkpt>
      <trkpt lat="42.899962" lon="1.453613">
        <ele>1266.7</ele>
        <time>2013-03-16T07:55:04Z</time>
      </trkpt>
      <trkpt lat="42.900067" lon="1.453629">
        <ele>1269.1</ele>
        <time>2013-03-16T07:55:18Z</time>
      </trkpt>
      <trkpt lat="42.900160" lon="1.453640">
        <ele>1271.5</ele>
        <time>2013-03-16T07:55:34Z</time>
      </trkpt>
      <trkpt lat="42.900247" lon="1.453665">
        <ele>1275.8</ele>
        <time>2013-03-16T07:55:51Z</time>
      </trkpt>
      <trkpt lat="42.900327" lon="1.453721">
        <ele>1279.2</ele>
        <time>2013-03-16T07:56:18Z</time>
      </trkpt>
      <trkpt lat="42.900443" lon="1.453743">
        <ele>1284.0</ele>
        <time>2013-03-16T07:56:42Z</time>
      </trkpt>
      <trkpt lat="42.900549" lon="1.453789">
        <ele>1287.8</ele>
        <time>2013-03-16T07:57:03Z</time>
      </trkpt>
      <trkpt lat="42.900654" lon="1.453785">
        <ele>1292.2</ele>
        <time>2013-03-16T07:57:22Z</time>
      </trkpt>
      <trkpt lat="42.900750" lon="1.453766">
        <ele>1295.5</ele>
        <time>2013-03-16T07:57:41Z</time>
      </trkpt>
      <trkpt lat="42.900842" lon="1.453759">
        <ele>1299.4</ele>
        <time>2013-03-16T07:58:03Z</time>
      </trkpt>
      <trkpt lat="42.900941" lon="1.453732">
        <ele>1301.8</ele>
        <time>2013-03-16T07:58:21Z</time>
      </trkpt>
      <trkpt lat="42.901040" lon="1.453714">
        <ele>1305.1</ele>
        <time>2013-03-16T07:58:41Z</time>
      </trkpt>
      <trkpt lat="42.901123" lon="1.453740">
        <ele>1308.5</ele>
        <time>2013-03-16T07:59:41Z</time>
      </trkpt>
      <trkpt lat="42.901229" lon="1.453690">
        <ele>1311.4</ele>
        <time>2013-03-16T07:59:51Z</time>
      </trkpt>
      <trkpt lat="42.901328" lon="1.453706">
        <ele>1314.3</ele>
        <time>2013-03-16T08:00:02Z</time>
      </trkpt>
      <trkpt lat="42.901405" lon="1.453702">
        <ele>1317.6</ele>
        <time>2013-03-16T08:00:20Z</time>
      </trkpt>
      <trkpt lat="42.901510" lon="1.453699">
        <ele>1321.9</ele>
        <time>2013-03-16T08:00:41Z</time>
      </trkpt>
      <trkpt lat="42.901599" lon="1.453688">
        <ele>1326.8</ele>
        <time>2013-03-16T08:01:02Z</time>
      </trkpt>
      <trkpt lat="42.901688" lon="1.453700">
        <ele>1331.1</ele>
        <time>2013-03-16T08:01:25Z</time>
      </trkpt>
      <trkpt lat="42.901779" lon="1.453697">
        <ele>1335.4</ele>
        <time>2013-03-16T08:01:51Z</time>
      </trkpt>
      <trkpt lat="42.901874" lon="1.453688">
        <ele>1338.8</ele>
        <time>2013-03-16T08:02:11Z</time>
      </trkpt>
      <trkpt lat="42.901969" lon="1.453668">
        <ele>1344.1</ele>
        <time>2013-03-16T08:02:36Z</time>
      </trkpt>
      <trkpt lat="42.902065" lon="1.453653">
        <ele>1348.4</ele>
        <time>2013-03-16T08:02:58Z</time>
      </trkpt>
      <trkpt lat="42.902122" lon="1.453652">
        <ele>1352.2</ele>
        <time>2013-03-16T08:03:18Z</time>
      </trkpt>
      <trkpt lat="42.902218" lon="1.453629">
        <ele>1355.1</ele>
        <time>2013-03-16T08:03:42Z</time>
      </trkpt>
      <trkpt lat="42.902311" lon="1.453614">
        <ele>1358.5</ele>
        <time>2013-03-16T08:03:59Z</time>
      </trkpt>
      <trkpt lat="42.902416" lon="1.453615">
        <ele>1361.4</ele>
        <time>2013-03-16T08:04:18Z</time>
      </trkpt>
      <trkpt lat="42.902512" lon="1.453625">
        <ele>1363.8</ele>
        <time>2013-03-16T08:04:35Z</time>
      </trkpt>
      <trkpt lat="42.902594" lon="1.453634">
        <ele>1366.7</ele>
        <time>2013-03-16T08:04:53Z</time>
      </trkpt>
      <trkpt lat="42.902691" lon="1.453651">
        <ele>1370.5</ele>
        <time>2013-03-16T08:05:13Z</time>
      </trkpt>
      <trkpt lat="42.902784" lon="1.453684">
        <ele>1374.8</ele>
        <time>2013-03-16T08:05:41Z</time>
      </trkpt>
      <trkpt lat="42.902893" lon="1.453688">
        <ele>1378.2</ele>
        <time>2013-03-16T08:05:58Z</time>
      </trkpt>
      <trkpt lat="42.902975" lon="1.453697">
        <ele>1381.6</ele>
        <time>2013-03-16T08:06:18Z</time>
      </trkpt>
      <trkpt lat="42.903070" lon="1.453722">
        <ele>1385.4</ele>
        <time>2013-03-16T08:06:39Z</time>
      </trkpt>
      <trkpt lat="42.903157" lon="1.453745">
        <ele>1389.2</ele>
        <time>2013-03-16T08:07:02Z</time>
      </trkpt>
      <trkpt lat="42.903252" lon="1.453773">
        <ele>1393.6</ele>
        <time>2013-03-16T08:07:27Z</time>
      </trkpt>
      <trkpt lat="42.903332" lon="1.453798">
        <ele>1397.9</ele>
        <time>2013-03-16T08:07:50Z</time>
      </trkpt>
      <trkpt lat="42.903418" lon="1.453821">
        <ele>1401.7</ele>
        <time>2013-03-16T08:08:13Z</time>
      </trkpt>
      <trkpt lat="42.903492" lon="1.453836">
        <ele>1405.6</ele>
        <time>2013-03-16T08:08:40Z</time>
      </trkpt>
      <trkpt lat="42.903581" lon="1.453858">
        <ele>1409.4</ele>
        <time>2013-03-16T08:09:19Z</time>
      </trkpt>
      <trkpt lat="42.903678" lon="1.453837">
        <ele>1414.7</ele>
        <time>2013-03-16T08:09:51Z</time>
      </trkpt>
      <trkpt lat="42.903746" lon="1.453892">
        <ele>1417.6</ele>
        <time>2013-03-16T08:10:09Z</time>
      </trkpt>
      <trkpt lat="42.903833" lon="1.453915">
        <ele>1423.4</ele>
        <time>2013-03-16T08:10:28Z</time>
      </trkpt>
      <trkpt lat="42.903890" lon="1.453973">
        <ele>1427.2</ele>
        <time>2013-03-16T08:10:46Z</time>
      </trkpt>
      <trkpt lat="42.903989" lon="1.453954">
        <ele>1431.1</ele>
        <time>2013-03-16T08:11:03Z</time>
      </trkpt>
      <trkpt lat="42.904028" lon="1.454055">
        <ele>1435.4</ele>
        <time>2013-03-16T08:11:20Z</time>
      </trkpt>
      <trkpt lat="42.904119" lon="1.454032">
        <ele>1439.2</ele>
        <time>2013-03-16T08:11:38Z</time>
      </trkpt>
      <trkpt lat="42.904176" lon="1.454143">
        <ele>1443.6</ele>
        <time>2013-03-16T08:11:56Z</time>
      </trkpt>
      <trkpt lat="42.904263" lon="1.454161">
        <ele>1447.9</ele>
        <time>2013-03-16T08:12:14Z</time>
      </trkpt>
      <trkpt lat="42.904332" lon="1.454191">
        <ele>1451.7</ele>
        <time>2013-03-16T08:12:35Z</time>
      </trkpt>
      <trkpt lat="42.904401" lon="1.454150">
        <ele>1454.6</ele>
        <time>2013-03-16T08:12:54Z</time>
      </trkpt>
      <trkpt lat="42.904436" lon="1.454246">
        <ele>1457.5</ele>
        <time>2013-03-16T08:13:10Z</time>
      </trkpt>
      <trkpt lat="42.904545" lon="1.454207">
        <ele>1462.3</ele>
        <time>2013-03-16T08:13:32Z</time>
      </trkpt>
      <trkpt lat="42.904610" lon="1.454257">
        <ele>1467.1</ele>
        <time>2013-03-16T08:14:14Z</time>
      </trkpt>
      <trkpt lat="42.904696" lon="1.454304">
        <ele>1472.9</ele>
        <time>2013-03-16T08:14:36Z</time>
      </trkpt>
      <trkpt lat="42.904724" lon="1.454408">
        <ele>1476.2</ele>
        <time>2013-03-16T08:14:53Z</time>
      </trkpt>
      <trkpt lat="42.904837" lon="1.454390">
        <ele>1480.1</ele>
        <time>2013-03-16T08:15:32Z</time>
      </trkpt>
      <trkpt lat="42.904822" lon="1.454438">
        <ele>1481.5</ele>
        <time>2013-03-16T08:17:11Z</time>
      </trkpt>
      <trkpt lat="42.904817" lon="1.454538">
        <ele>1483.0</ele>
        <time>2013-03-16T08:19:58Z</time>
      </trkpt>
      <trkpt lat="42.904826" lon="1.454705">
        <ele>1486.8</ele>
        <time>2013-03-16T08:20:18Z</time>
      </trkpt>
      <trkpt lat="42.904844" lon="1.454842">
        <ele>1488.7</ele>
        <time>2013-03-16T08:20:35Z</time>
      </trkpt>
      <trkpt lat="42.904943" lon="1.454859">
        <ele>1493.6</ele>
        <time>2013-03-16T08:20:58Z</time>
      </trkpt>
      <trkpt lat="42.904971" lon="1.454974">
        <ele>1498.3</ele>
        <time>2013-03-16T08:21:24Z</time>
      </trkpt>
      <trkpt lat="42.904976" lon="1.455111">
        <ele>1499.8</ele>
        <time>2013-03-16T08:21:43Z</time>
      </trkpt>
      <trkpt lat="42.904996" lon="1.455246">
        <ele>1503.2</ele>
        <time>2013-03-16T08:21:59Z</time>
      </trkpt>
      <trkpt lat="42.905038" lon="1.455334">
        <ele>1505.6</ele>
        <time>2013-03-16T08:22:14Z</time>
      </trkpt>
      <trkpt lat="42.905065" lon="1.455457">
        <ele>1509.4</ele>
        <time>2013-03-16T08:22:32Z</time>
      </trkpt>
      <trkpt lat="42.905102" lon="1.455560">
        <ele>1513.2</ele>
        <time>2013-03-16T08:22:49Z</time>
      </trkpt>
      <trkpt lat="42.905138" lon="1.455670">
        <ele>1515.7</ele>
        <time>2013-03-16T08:23:05Z</time>
      </trkpt>
      <trkpt lat="42.905174" lon="1.455794">
        <ele>1519.0</ele>
        <time>2013-03-16T08:23:21Z</time>
      </trkpt>
      <trkpt lat="42.905193" lon="1.455914">
        <ele>1520.9</ele>
        <time>2013-03-16T08:23:35Z</time>
      </trkpt>
      <trkpt lat="42.905233" lon="1.456022">
        <ele>1524.3</ele>
        <time>2013-03-16T08:23:51Z</time>
      </trkpt>
      <trkpt lat="42.905330" lon="1.456045">
        <ele>1528.6</ele>
        <time>2013-03-16T08:24:08Z</time>
      </trkpt>
      <trkpt lat="42.905345" lon="1.456192">
        <ele>1531.5</ele>
        <time>2013-03-16T08:24:24Z</time>
      </trkpt>
      <trkpt lat="42.905362" lon="1.456314">
        <ele>1532.5</ele>
        <time>2013-03-16T08:24:37Z</time>
      </trkpt>
      <trkpt lat="42.905402" lon="1.456433">
        <ele>1535.4</ele>
        <time>2013-03-16T08:24:52Z</time>
      </trkpt>
      <trkpt lat="42.905444" lon="1.456529">
        <ele>1538.2</ele>
        <time>2013-03-16T08:25:05Z</time>
      </trkpt>
      <trkpt lat="42.905483" lon="1.456630">
        <ele>1540.2</ele>
        <time>2013-03-16T08:25:19Z</time>
      </trkpt>
      <trkpt lat="42.905533" lon="1.456740">
        <ele>1542.6</ele>
        <time>2013-03-16T08:25:34Z</time>
      </trkpt>
      <trkpt lat="42.905567" lon="1.456862">
        <ele>1544.5</ele>
        <time>2013-03-16T08:25:49Z</time>
      </trkpt>
      <trkpt lat="42.905562" lon="1.456862">
        <ele>1544.5</ele>
        <time>2013-03-16T08:28:19Z</time>
      </trkpt>
      <trkpt lat="42.905603" lon="1.456935">
        <ele>1546.4</ele>
        <time>2013-03-16T08:30:14Z</time>
      </trkpt>
      <trkpt lat="42.905628" lon="1.457052">
        <ele>1546.9</ele>
        <time>2013-03-16T08:30:24Z</time>
      </trkpt>
      <trkpt lat="42.905658" lon="1.457162">
        <ele>1548.3</ele>
        <time>2013-03-16T08:30:47Z</time>
      </trkpt>
      <trkpt lat="42.905657" lon="1.457292">
        <ele>1548.3</ele>
        <time>2013-03-16T08:30:58Z</time>
      </trkpt>
      <trkpt lat="42.905653" lon="1.457433">
        <ele>1548.8</ele>
        <time>2013-03-16T08:31:10Z</time>
      </trkpt>
      <trkpt lat="42.905640" lon="1.457560">
        <ele>1548.3</ele>
        <time>2013-03-16T08:31:20Z</time>
        <name>Roc Blanc</name>
      </trkpt>
      <trkpt lat="42.905606" lon="1.457641">
        <ele>1545.9</ele>
        <time>2013-03-16T08:31:52Z</time>
      </trkpt>
      <trkpt lat="42.905654" lon="1.457753">
        <ele>1547.4</ele>
        <time>2013-03-16T08:32:05Z</time>
      </trkpt>
      <trkpt lat="42.905681" lon="1.457875">
        <ele>1545.9</ele>
        <time>2013-03-16T08:32:14Z</time>
      </trkpt>
      <trkpt lat="42.905682" lon="1.458016">
        <ele>1545.0</ele>
        <time>2013-03-16T08:32:23Z</time>
      </trkpt>
      <trkpt lat="42.905684" lon="1.458148">
        <ele>1544.5</ele>
        <time>2013-03-16T08:32:32Z</time>
      </trkpt>
      <trkpt lat="42.905698" lon="1.458278">
        <ele>1542.6</ele>
        <time>2013-03-16T08:32:41Z</time>
      </trkpt>
      <trkpt lat="42.905717" lon="1.458413">
        <ele>1541.6</ele>
        <time>2013-03-16T08:32:50Z</time>
      </trkpt>
      <trkpt lat="42.905733" lon="1.458540">
        <ele>1540.2</ele>
        <time>2013-03-16T08:32:59Z</time>
      </trkpt>
      <trkpt lat="42.905727" lon="1.458675">
        <ele>1540.7</ele>
        <time>2013-03-16T08:33:09Z</time>
      </trkpt>
      <trkpt lat="42.905717" lon="1.458811">
        <ele>1542.1</ele>
        <time>2013-03-16T08:33:21Z</time>
      </trkpt>
      <trkpt lat="42.905716" lon="1.458940">
        <ele>1542.6</ele>
        <time>2013-03-16T08:33:31Z</time>
      </trkpt>
      <trkpt lat="42.905713" lon="1.459068">
        <ele>1542.6</ele>
        <time>2013-03-16T08:33:42Z</time>
      </trkpt>
      <trkpt lat="42.905706" lon="1.459192">
        <ele>1542.6</ele>
        <time>2013-03-16T08:33:52Z</time>
      </trkpt>
      <trkpt lat="42.905697" lon="1.459318">
        <ele>1542.6</ele>
        <time>2013-03-16T08:34:01Z</time>
      </trkpt>
      <trkpt lat="42.905679" lon="1.459455">
        <ele>1542.6</ele>
        <time>2013-03-16T08:34:11Z</time>
      </trkpt>
      <trkpt lat="42.905669" lon="1.459591">
        <ele>1542.1</ele>
        <time>2013-03-16T08:34:21Z</time>
      </trkpt>
      <trkpt lat="42.905664" lon="1.459717">
        <ele>1542.6</ele>
        <time>2013-03-16T08:34:30Z</time>
      </trkpt>
      <trkpt lat="42.905652" lon="1.459841">
        <ele>1542.1</ele>
        <time>2013-03-16T08:34:39Z</time>
      </trkpt>
      <trkpt lat="42.905634" lon="1.459969">
        <ele>1542.1</ele>
        <time>2013-03-16T08:34:48Z</time>
      </trkpt>
      <trkpt lat="42.905622" lon="1.460098">
        <ele>1542.1</ele>
        <time>2013-03-16T08:34:57Z</time>
      </trkpt>
      <trkpt lat="42.905621" lon="1.460237">
        <ele>1541.6</ele>
        <time>2013-03-16T08:35:07Z</time>
      </trkpt>
      <trkpt lat="42.905629" lon="1.460376">
        <ele>1542.1</ele>
        <time>2013-03-16T08:35:17Z</time>
      </trkpt>
      <trkpt lat="42.905629" lon="1.460504">
        <ele>1542.6</ele>
        <time>2013-03-16T08:35:27Z</time>
      </trkpt>
      <trkpt lat="42.905623" lon="1.460639">
        <ele>1543.5</ele>
        <time>2013-03-16T08:35:37Z</time>
      </trkpt>
      <trkpt lat="42.905610" lon="1.460757">
        <ele>1544.5</ele>
        <time>2013-03-16T08:35:46Z</time>
      </trkpt>
      <trkpt lat="42.905620" lon="1.460890">
        <ele>1545.0</ele>
        <time>2013-03-16T08:35:56Z</time>
      </trkpt>
      <trkpt lat="42.905620" lon="1.461023">
        <ele>1545.5</ele>
        <time>2013-03-16T08:36:07Z</time>
      </trkpt>
      <trkpt lat="42.905626" lon="1.461148">
        <ele>1545.9</ele>
        <time>2013-03-16T08:36:17Z</time>
      </trkpt>
      <trkpt lat="42.905631" lon="1.461273">
        <ele>1547.4</ele>
        <time>2013-03-16T08:36:27Z</time>
      </trkpt>
      <trkpt lat="42.905652" lon="1.461405">
        <ele>1548.3</ele>
        <time>2013-03-16T08:36:38Z</time>
      </trkpt>
      <trkpt lat="42.905666" lon="1.461543">
        <ele>1550.7</ele>
        <time>2013-03-16T08:36:50Z</time>
      </trkpt>
      <trkpt lat="42.905673" lon="1.461673">
        <ele>1552.2</ele>
        <time>2013-03-16T08:37:02Z</time>
      </trkpt>
      <trkpt lat="42.905678" lon="1.461792">
        <ele>1554.1</ele>
        <time>2013-03-16T08:37:13Z</time>
      </trkpt>
      <trkpt lat="42.905687" lon="1.461912">
        <ele>1556.0</ele>
        <time>2013-03-16T08:37:24Z</time>
      </trkpt>
      <trkpt lat="42.905694" lon="1.462035">
        <ele>1558.4</ele>
        <time>2013-03-16T08:37:36Z</time>
      </trkpt>
      <trkpt lat="42.905721" lon="1.462152">
        <ele>1559.9</ele>
        <time>2013-03-16T08:37:49Z</time>
      </trkpt>
      <trkpt lat="42.905745" lon="1.462271">
        <ele>1562.3</ele>
        <time>2013-03-16T08:38:02Z</time>
      </trkpt>
      <trkpt lat="42.905770" lon="1.462391">
        <ele>1563.7</ele>
        <time>2013-03-16T08:38:14Z</time>
      </trkpt>
      <trkpt lat="42.905784" lon="1.462514">
        <ele>1565.2</ele>
        <time>2013-03-16T08:38:26Z</time>
      </trkpt>
      <trkpt lat="42.905810" lon="1.462648">
        <ele>1567.1</ele>
        <time>2013-03-16T08:38:40Z</time>
      </trkpt>
      <trkpt lat="42.905818" lon="1.462766">
        <ele>1568.5</ele>
        <time>2013-03-16T08:38:53Z</time>
      </trkpt>
      <trkpt lat="42.905830" lon="1.462894">
        <ele>1570.4</ele>
        <time>2013-03-16T08:39:06Z</time>
      </trkpt>
      <trkpt lat="42.905846" lon="1.463015">
        <ele>1571.9</ele>
        <time>2013-03-16T08:39:17Z</time>
      </trkpt>
      <trkpt lat="42.905866" lon="1.463140">
        <ele>1573.3</ele>
        <time>2013-03-16T08:39:29Z</time>
      </trkpt>
      <trkpt lat="42.905886" lon="1.463255">
        <ele>1575.3</ele>
        <time>2013-03-16T08:39:42Z</time>
      </trkpt>
      <trkpt lat="42.905901" lon="1.463378">
        <ele>1575.7</ele>
        <time>2013-03-16T08:39:54Z</time>
      </trkpt>
      <trkpt lat="42.905906" lon="1.463503">
        <ele>1577.2</ele>
        <time>2013-03-16T08:40:06Z</time>
      </trkpt>
      <trkpt lat="42.905920" lon="1.463621">
        <ele>1578.6</ele>
        <time>2013-03-16T08:40:18Z</time>
      </trkpt>
      <trkpt lat="42.905928" lon="1.463745">
        <ele>1580.1</ele>
        <time>2013-03-16T08:40:29Z</time>
      </trkpt>
      <trkpt lat="42.905955" lon="1.463863">
        <ele>1581.5</ele>
        <time>2013-03-16T08:40:39Z</time>
      </trkpt>
      <trkpt lat="42.905977" lon="1.463969">
        <ele>1583.4</ele>
        <time>2013-03-16T08:40:49Z</time>
      </trkpt>
      <trkpt lat="42.905991" lon="1.464101">
        <ele>1584.4</ele>
        <time>2013-03-16T08:41:00Z</time>
      </trkpt>
      <trkpt lat="42.906016" lon="1.464209">
        <ele>1585.8</ele>
        <time>2013-03-16T08:41:11Z</time>
      </trkpt>
      <trkpt lat="42.906059" lon="1.464324">
        <ele>1586.8</ele>
        <time>2013-03-16T08:41:23Z</time>
      </trkpt>
      <trkpt lat="42.906089" lon="1.464448">
        <ele>1588.2</ele>
        <time>2013-03-16T08:41:36Z</time>
      </trkpt>
      <trkpt lat="42.906114" lon="1.464575">
        <ele>1589.7</ele>
        <time>2013-03-16T08:41:48Z</time>
      </trkpt>
      <trkpt lat="42.906130" lon="1.464706">
        <ele>1591.6</ele>
        <time>2013-03-16T08:42:00Z</time>
      </trkpt>
      <trkpt lat="42.906137" lon="1.464821">
        <ele>1593.5</ele>
        <time>2013-03-16T08:42:12Z</time>
      </trkpt>
      <trkpt lat="42.906155" lon="1.464943">
        <ele>1595.0</ele>
        <time>2013-03-16T08:42:24Z</time>
      </trkpt>
      <trkpt lat="42.906180" lon="1.465072">
        <ele>1596.4</ele>
        <time>2013-03-16T08:42:37Z</time>
      </trkpt>
      <trkpt lat="42.906197" lon="1.465197">
        <ele>1598.3</ele>
        <time>2013-03-16T08:42:50Z</time>
      </trkpt>
      <trkpt lat="42.906193" lon="1.465329">
        <ele>1599.8</ele>
        <time>2013-03-16T08:43:01Z</time>
      </trkpt>
      <trkpt lat="42.906197" lon="1.465452">
        <ele>1601.2</ele>
        <time>2013-03-16T08:43:13Z</time>
      </trkpt>
      <trkpt lat="42.906226" lon="1.465563">
        <ele>1603.1</ele>
        <time>2013-03-16T08:43:25Z</time>
      </trkpt>
      <trkpt lat="42.906253" lon="1.465664">
        <ele>1604.1</ele>
        <time>2013-03-16T08:43:39Z</time>
      </trkpt>
      <trkpt lat="42.906276" lon="1.465799">
        <ele>1604.6</ele>
        <time>2013-03-16T08:43:51Z</time>
      </trkpt>
      <trkpt lat="42.906296" lon="1.465921">
        <ele>1606.0</ele>
        <time>2013-03-16T08:44:01Z</time>
      </trkpt>
      <trkpt lat="42.906329" lon="1.466033">
        <ele>1607.0</ele>
        <time>2013-03-16T08:44:12Z</time>
      </trkpt>
      <trkpt lat="42.906352" lon="1.466147">
        <ele>1608.4</ele>
        <time>2013-03-16T08:44:23Z</time>
      </trkpt>
      <trkpt lat="42.906390" lon="1.466262">
        <ele>1610.3</ele>
        <time>2013-03-16T08:44:35Z</time>
      </trkpt>
      <trkpt lat="42.906436" lon="1.466377">
        <ele>1611.8</ele>
        <time>2013-03-16T08:44:47Z</time>
      </trkpt>
      <trkpt lat="42.906472" lon="1.466464">
        <ele>1613.2</ele>
        <time>2013-03-16T08:45:32Z</time>
      </trkpt>
      <trkpt lat="42.906523" lon="1.466572">
        <ele>1614.7</ele>
        <time>2013-03-16T08:45:45Z</time>
      </trkpt>
      <trkpt lat="42.906593" lon="1.466653">
        <ele>1616.6</ele>
        <time>2013-03-16T08:45:56Z</time>
      </trkpt>
      <trkpt lat="42.906655" lon="1.466748">
        <ele>1618.0</ele>
        <time>2013-03-16T08:46:09Z</time>
      </trkpt>
      <trkpt lat="42.906694" lon="1.466854">
        <ele>1620.0</ele>
        <time>2013-03-16T08:46:20Z</time>
      </trkpt>
      <trkpt lat="42.906743" lon="1.466959">
        <ele>1621.4</ele>
        <time>2013-03-16T08:46:33Z</time>
      </trkpt>
      <trkpt lat="42.906788" lon="1.467068">
        <ele>1623.3</ele>
        <time>2013-03-16T08:46:47Z</time>
      </trkpt>
      <trkpt lat="42.906847" lon="1.467162">
        <ele>1624.8</ele>
        <time>2013-03-16T08:47:00Z</time>
      </trkpt>
      <trkpt lat="42.906906" lon="1.467262">
        <ele>1627.2</ele>
        <time>2013-03-16T08:47:14Z</time>
      </trkpt>
      <trkpt lat="42.906965" lon="1.467355">
        <ele>1628.6</ele>
        <time>2013-03-16T08:47:26Z</time>
      </trkpt>
      <trkpt lat="42.907015" lon="1.467445">
        <ele>1630.5</ele>
        <time>2013-03-16T08:47:37Z</time>
      </trkpt>
      <trkpt lat="42.907068" lon="1.467554">
        <ele>1632.5</ele>
        <time>2013-03-16T08:47:50Z</time>
      </trkpt>
      <trkpt lat="42.907131" lon="1.467628">
        <ele>1633.4</ele>
        <time>2013-03-16T08:48:01Z</time>
      </trkpt>
      <trkpt lat="42.907184" lon="1.467736">
        <ele>1634.9</ele>
        <time>2013-03-16T08:48:14Z</time>
      </trkpt>
      <trkpt lat="42.907244" lon="1.467838">
        <ele>1636.8</ele>
        <time>2013-03-16T08:48:28Z</time>
      </trkpt>
      <trkpt lat="42.907299" lon="1.467921">
        <ele>1638.2</ele>
        <time>2013-03-16T08:48:42Z</time>
      </trkpt>
      <trkpt lat="42.907351" lon="1.468019">
        <ele>1640.2</ele>
        <time>2013-03-16T08:48:56Z</time>
      </trkpt>
      <trkpt lat="42.907408" lon="1.468120">
        <ele>1642.6</ele>
        <time>2013-03-16T08:49:11Z</time>
      </trkpt>
      <trkpt lat="42.907464" lon="1.468222">
        <ele>1644.5</ele>
        <time>2013-03-16T08:49:25Z</time>
      </trkpt>
      <trkpt lat="42.907513" lon="1.468316">
        <ele>1646.4</ele>
        <time>2013-03-16T08:49:38Z</time>
      </trkpt>
      <trkpt lat="42.907574" lon="1.468399">
        <ele>1648.8</ele>
        <time>2013-03-16T08:49:51Z</time>
      </trkpt>
      <trkpt lat="42.907627" lon="1.468488">
        <ele>1650.2</ele>
        <time>2013-03-16T08:50:06Z</time>
      </trkpt>
      <trkpt lat="42.907686" lon="1.468587">
        <ele>1652.6</ele>
        <time>2013-03-16T08:50:21Z</time>
      </trkpt>
      <trkpt lat="42.907747" lon="1.468686">
        <ele>1655.1</ele>
        <time>2013-03-16T08:50:37Z</time>
      </trkpt>
      <trkpt lat="42.907796" lon="1.468782">
        <ele>1657.4</ele>
        <time>2013-03-16T08:50:51Z</time>
      </trkpt>
      <trkpt lat="42.907857" lon="1.468867">
        <ele>1658.9</ele>
        <time>2013-03-16T08:51:04Z</time>
      </trkpt>
      <trkpt lat="42.907920" lon="1.468962">
        <ele>1660.8</ele>
        <time>2013-03-16T08:51:19Z</time>
      </trkpt>
      <trkpt lat="42.907982" lon="1.469059">
        <ele>1663.7</ele>
        <time>2013-03-16T08:51:33Z</time>
      </trkpt>
      <trkpt lat="42.908044" lon="1.469152">
        <ele>1665.6</ele>
        <time>2013-03-16T08:51:46Z</time>
      </trkpt>
      <trkpt lat="42.908103" lon="1.469238">
        <ele>1668.0</ele>
        <time>2013-03-16T08:51:58Z</time>
      </trkpt>
      <trkpt lat="42.908163" lon="1.469325">
        <ele>1669.9</ele>
        <time>2013-03-16T08:52:12Z</time>
      </trkpt>
      <trkpt lat="42.908209" lon="1.469421">
        <ele>1671.9</ele>
        <time>2013-03-16T08:52:23Z</time>
      </trkpt>
      <trkpt lat="42.908262" lon="1.469506">
        <ele>1673.8</ele>
        <time>2013-03-16T08:52:35Z</time>
      </trkpt>
      <trkpt lat="42.908330" lon="1.469598">
        <ele>1676.2</ele>
        <time>2013-03-16T08:52:47Z</time>
      </trkpt>
      <trkpt lat="42.908392" lon="1.469665">
        <ele>1678.1</ele>
        <time>2013-03-16T08:53:01Z</time>
      </trkpt>
      <trkpt lat="42.908479" lon="1.469709">
        <ele>1680.0</ele>
        <time>2013-03-16T08:53:15Z</time>
      </trkpt>
      <trkpt lat="42.908571" lon="1.469701">
        <ele>1680.5</ele>
        <time>2013-03-16T08:53:27Z</time>
      </trkpt>
      <trkpt lat="42.908667" lon="1.469695">
        <ele>1680.5</ele>
        <time>2013-03-16T08:53:38Z</time>
      </trkpt>
      <trkpt lat="42.908726" lon="1.469713">
        <ele>1679.6</ele>
        <time>2013-03-16T08:54:01Z</time>
      </trkpt>
      <trkpt lat="42.908803" lon="1.469760">
        <ele>1679.6</ele>
        <time>2013-03-16T08:54:12Z</time>
        <name>Roc de Therme</name>
      </trkpt>
      <trkpt lat="42.908802" lon="1.469779">
        <ele>1679.6</ele>
        <time>2013-03-16T08:55:07Z</time>
      </trkpt>
      <trkpt lat="42.908723" lon="1.469797">
        <ele>1679.1</ele>
        <time>2013-03-16T08:56:09Z</time>
      </trkpt>
      <trkpt lat="42.908667" lon="1.469886">
        <ele>1681.0</ele>
        <time>2013-03-16T08:56:55Z</time>
      </trkpt>
      <trkpt lat="42.908606" lon="1.469969">
        <ele>1681.5</ele>
        <time>2013-03-16T08:57:07Z</time>
      </trkpt>
      <trkpt lat="42.908548" lon="1.470060">
        <ele>1682.4</ele>
        <time>2013-03-16T08:57:18Z</time>
      </trkpt>
      <trkpt lat="42.908456" lon="1.470010">
        <ele>1679.1</ele>
        <time>2013-03-16T08:57:30Z</time>
      </trkpt>
      <trkpt lat="42.908366" lon="1.470044">
        <ele>1680.0</ele>
        <time>2013-03-16T08:57:40Z</time>
      </trkpt>
      <trkpt lat="42.908281" lon="1.470065">
        <ele>1680.0</ele>
        <time>2013-03-16T08:57:50Z</time>
      </trkpt>
      <trkpt lat="42.908186" lon="1.470067">
        <ele>1677.6</ele>
        <time>2013-03-16T08:58:00Z</time>
      </trkpt>
      <trkpt lat="42.908096" lon="1.470072">
        <ele>1676.7</ele>
        <time>2013-03-16T08:58:45Z</time>
      </trkpt>
      <trkpt lat="42.908008" lon="1.470062">
        <ele>1674.8</ele>
        <time>2013-03-16T08:59:06Z</time>
      </trkpt>
      <trkpt lat="42.907919" lon="1.470075">
        <ele>1672.8</ele>
        <time>2013-03-16T08:59:20Z</time>
      </trkpt>
      <trkpt lat="42.907853" lon="1.470096">
        <ele>1671.9</ele>
        <time>2013-03-16T09:00:05Z</time>
      </trkpt>
      <trkpt lat="42.907768" lon="1.470158">
        <ele>1669.9</ele>
        <time>2013-03-16T09:00:15Z</time>
      </trkpt>
      <trkpt lat="42.907720" lon="1.470213">
        <ele>1669.0</ele>
        <time>2013-03-16T09:01:45Z</time>
      </trkpt>
      <trkpt lat="42.907629" lon="1.470266">
        <ele>1668.0</ele>
        <time>2013-03-16T09:01:56Z</time>
      </trkpt>
      <trkpt lat="42.907544" lon="1.470310">
        <ele>1667.5</ele>
        <time>2013-03-16T09:02:06Z</time>
      </trkpt>
      <trkpt lat="42.907465" lon="1.470382">
        <ele>1666.1</ele>
        <time>2013-03-16T09:02:16Z</time>
      </trkpt>
      <trkpt lat="42.907381" lon="1.470449">
        <ele>1665.1</ele>
        <time>2013-03-16T09:02:25Z</time>
      </trkpt>
      <trkpt lat="42.907311" lon="1.470541">
        <ele>1664.2</ele>
        <time>2013-03-16T09:02:35Z</time>
      </trkpt>
      <trkpt lat="42.907242" lon="1.470627">
        <ele>1662.7</ele>
        <time>2013-03-16T09:02:44Z</time>
      </trkpt>
      <trkpt lat="42.907166" lon="1.470707">
        <ele>1661.3</ele>
        <time>2013-03-16T09:02:53Z</time>
      </trkpt>
      <trkpt lat="42.907090" lon="1.470773">
        <ele>1659.8</ele>
        <time>2013-03-16T09:03:02Z</time>
      </trkpt>
      <trkpt lat="42.907019" lon="1.470835">
        <ele>1658.4</ele>
        <time>2013-03-16T09:03:11Z</time>
      </trkpt>
      <trkpt lat="42.906933" lon="1.470896">
        <ele>1657.0</ele>
        <time>2013-03-16T09:03:21Z</time>
      </trkpt>
      <trkpt lat="42.906857" lon="1.470956">
        <ele>1654.6</ele>
        <time>2013-03-16T09:03:30Z</time>
      </trkpt>
      <trkpt lat="42.906782" lon="1.471051">
        <ele>1653.1</ele>
        <time>2013-03-16T09:03:40Z</time>
      </trkpt>
      <trkpt lat="42.906712" lon="1.471130">
        <ele>1649.8</ele>
        <time>2013-03-16T09:03:50Z</time>
      </trkpt>
      <trkpt lat="42.906648" lon="1.471230">
        <ele>1646.9</ele>
        <time>2013-03-16T09:03:59Z</time>
      </trkpt>
      <trkpt lat="42.906594" lon="1.471336">
        <ele>1644.0</ele>
        <time>2013-03-16T09:04:07Z</time>
      </trkpt>
      <trkpt lat="42.906538" lon="1.471434">
        <ele>1641.6</ele>
        <time>2013-03-16T09:04:16Z</time>
      </trkpt>
      <trkpt lat="42.906494" lon="1.471536">
        <ele>1638.2</ele>
        <time>2013-03-16T09:04:25Z</time>
      </trkpt>
      <trkpt lat="42.906462" lon="1.471644">
        <ele>1636.3</ele>
        <time>2013-03-16T09:04:34Z</time>
      </trkpt>
      <trkpt lat="42.906433" lon="1.471756">
        <ele>1633.9</ele>
        <time>2013-03-16T09:04:43Z</time>
      </trkpt>
      <trkpt lat="42.906394" lon="1.471880">
        <ele>1630.1</ele>
        <time>2013-03-16T09:04:54Z</time>
      </trkpt>
      <trkpt lat="42.906363" lon="1.472006">
        <ele>1627.7</ele>
        <time>2013-03-16T09:05:05Z</time>
      </trkpt>
      <trkpt lat="42.906327" lon="1.472131">
        <ele>1625.7</ele>
        <time>2013-03-16T09:05:15Z</time>
      </trkpt>
      <trkpt lat="42.906301" lon="1.472249">
        <ele>1624.3</ele>
        <time>2013-03-16T09:05:24Z</time>
      </trkpt>
      <trkpt lat="42.906275" lon="1.472363">
        <ele>1621.9</ele>
        <time>2013-03-16T09:05:33Z</time>
      </trkpt>
      <trkpt lat="42.906259" lon="1.472470">
        <ele>1620.4</ele>
        <time>2013-03-16T09:05:42Z</time>
      </trkpt>
      <trkpt lat="42.906243" lon="1.472589">
        <ele>1618.5</ele>
        <time>2013-03-16T09:05:51Z</time>
      </trkpt>
      <trkpt lat="42.906218" lon="1.472713">
        <ele>1616.6</ele>
        <time>2013-03-16T09:06:00Z</time>
      </trkpt>
      <trkpt lat="42.906196" lon="1.472843">
        <ele>1614.2</ele>
        <time>2013-03-16T09:06:09Z</time>
      </trkpt>
      <trkpt lat="42.906175" lon="1.472964">
        <ele>1613.2</ele>
        <time>2013-03-16T09:06:18Z</time>
      </trkpt>
      <trkpt lat="42.906152" lon="1.473082">
        <ele>1611.8</ele>
        <time>2013-03-16T09:06:27Z</time>
      </trkpt>
      <trkpt lat="42.906131" lon="1.473179">
        <ele>1611.3</ele>
        <time>2013-03-16T09:06:55Z</time>
      </trkpt>
      <trkpt lat="42.906097" lon="1.473303">
        <ele>1609.4</ele>
        <time>2013-03-16T09:07:09Z</time>
      </trkpt>
      <trkpt lat="42.906073" lon="1.473431">
        <ele>1609.4</ele>
        <time>2013-03-16T09:07:20Z</time>
      </trkpt>
      <trkpt lat="42.906053" lon="1.473556">
        <ele>1608.9</ele>
        <time>2013-03-16T09:07:29Z</time>
      </trkpt>
      <trkpt lat="42.906019" lon="1.473693">
        <ele>1607.9</ele>
        <time>2013-03-16T09:07:38Z</time>
      </trkpt>
      <trkpt lat="42.905999" lon="1.473816">
        <ele>1607.9</ele>
        <time>2013-03-16T09:07:47Z</time>
      </trkpt>
      <trkpt lat="42.905962" lon="1.473940">
        <ele>1607.5</ele>
        <time>2013-03-16T09:07:57Z</time>
      </trkpt>
      <trkpt lat="42.905932" lon="1.474050">
        <ele>1606.5</ele>
        <time>2013-03-16T09:08:06Z</time>
      </trkpt>
      <trkpt lat="42.905888" lon="1.474152">
        <ele>1606.5</ele>
        <time>2013-03-16T09:08:16Z</time>
      </trkpt>
      <trkpt lat="42.905828" lon="1.474253">
        <ele>1605.5</ele>
        <time>2013-03-16T09:08:26Z</time>
      </trkpt>
      <trkpt lat="42.905808" lon="1.474366">
        <ele>1606.5</ele>
        <time>2013-03-16T09:08:36Z</time>
      </trkpt>
      <trkpt lat="42.905795" lon="1.474491">
        <ele>1606.5</ele>
        <time>2013-03-16T09:08:46Z</time>
      </trkpt>
      <trkpt lat="42.905771" lon="1.474621">
        <ele>1606.0</ele>
        <time>2013-03-16T09:08:56Z</time>
      </trkpt>
      <trkpt lat="42.905731" lon="1.474738">
        <ele>1605.5</ele>
        <time>2013-03-16T09:09:05Z</time>
      </trkpt>
      <trkpt lat="42.905708" lon="1.474865">
        <ele>1605.1</ele>
        <time>2013-03-16T09:09:14Z</time>
      </trkpt>
      <trkpt lat="42.905689" lon="1.475002">
        <ele>1604.6</ele>
        <time>2013-03-16T09:09:23Z</time>
      </trkpt>
      <trkpt lat="42.905658" lon="1.475119">
        <ele>1604.1</ele>
        <time>2013-03-16T09:09:32Z</time>
      </trkpt>
      <trkpt lat="42.905628" lon="1.475238">
        <ele>1604.1</ele>
        <time>2013-03-16T09:09:41Z</time>
      </trkpt>
      <trkpt lat="42.905616" lon="1.475366">
        <ele>1603.6</ele>
        <time>2013-03-16T09:09:51Z</time>
      </trkpt>
      <trkpt lat="42.905594" lon="1.475500">
        <ele>1603.6</ele>
        <time>2013-03-16T09:10:02Z</time>
      </trkpt>
      <trkpt lat="42.905575" lon="1.475618">
        <ele>1602.7</ele>
        <time>2013-03-16T09:10:12Z</time>
      </trkpt>
      <trkpt lat="42.905550" lon="1.475744">
        <ele>1601.7</ele>
        <time>2013-03-16T09:10:22Z</time>
      </trkpt>
      <trkpt lat="42.905571" lon="1.475871">
        <ele>1603.1</ele>
        <time>2013-03-16T09:10:32Z</time>
      </trkpt>
      <trkpt lat="42.905585" lon="1.475995">
        <ele>1603.1</ele>
        <time>2013-03-16T09:10:41Z</time>
      </trkpt>
      <trkpt lat="42.905622" lon="1.476117">
        <ele>1603.1</ele>
        <time>2013-03-16T09:10:51Z</time>
      </trkpt>
      <trkpt lat="42.905676" lon="1.476224">
        <ele>1602.7</ele>
        <time>2013-03-16T09:11:01Z</time>
      </trkpt>
      <trkpt lat="42.905718" lon="1.476346">
        <ele>1601.2</ele>
        <time>2013-03-16T09:11:11Z</time>
      </trkpt>
      <trkpt lat="42.905729" lon="1.476479">
        <ele>1600.2</ele>
        <time>2013-03-16T09:11:21Z</time>
      </trkpt>
      <trkpt lat="42.905708" lon="1.476600">
        <ele>1600.2</ele>
        <time>2013-03-16T09:11:38Z</time>
      </trkpt>
      <trkpt lat="42.905717" lon="1.476720">
        <ele>1601.2</ele>
        <time>2013-03-16T09:11:47Z</time>
      </trkpt>
      <trkpt lat="42.905716" lon="1.476839">
        <ele>1602.2</ele>
        <time>2013-03-16T09:11:56Z</time>
      </trkpt>
      <trkpt lat="42.905736" lon="1.476950">
        <ele>1602.2</ele>
        <time>2013-03-16T09:12:07Z</time>
      </trkpt>
      <trkpt lat="42.905763" lon="1.477059">
        <ele>1601.2</ele>
        <time>2013-03-16T09:12:17Z</time>
      </trkpt>
      <trkpt lat="42.905768" lon="1.477194">
        <ele>1600.2</ele>
        <time>2013-03-16T09:12:27Z</time>
      </trkpt>
      <trkpt lat="42.905772" lon="1.477325">
        <ele>1600.7</ele>
        <time>2013-03-16T09:12:37Z</time>
      </trkpt>
      <trkpt lat="42.905778" lon="1.477463">
        <ele>1600.7</ele>
        <time>2013-03-16T09:12:47Z</time>
      </trkpt>
      <trkpt lat="42.905781" lon="1.477595">
        <ele>1600.2</ele>
        <time>2013-03-16T09:12:57Z</time>
      </trkpt>
      <trkpt lat="42.905774" lon="1.477724">
        <ele>1599.8</ele>
        <time>2013-03-16T09:13:06Z</time>
      </trkpt>
      <trkpt lat="42.905782" lon="1.477846">
        <ele>1599.3</ele>
        <time>2013-03-16T09:13:15Z</time>
      </trkpt>
      <trkpt lat="42.905787" lon="1.477981">
        <ele>1598.8</ele>
        <time>2013-03-16T09:13:25Z</time>
      </trkpt>
      <trkpt lat="42.905789" lon="1.478102">
        <ele>1598.8</ele>
        <time>2013-03-16T09:13:34Z</time>
      </trkpt>
      <trkpt lat="42.905789" lon="1.478236">
        <ele>1600.2</ele>
        <time>2013-03-16T09:13:44Z</time>
      </trkpt>
      <trkpt lat="42.905798" lon="1.478361">
        <ele>1600.2</ele>
        <time>2013-03-16T09:13:54Z</time>
      </trkpt>
      <trkpt lat="42.905807" lon="1.478483">
        <ele>1601.7</ele>
        <time>2013-03-16T09:14:05Z</time>
      </trkpt>
      <trkpt lat="42.905824" lon="1.478601">
        <ele>1603.6</ele>
        <time>2013-03-16T09:14:16Z</time>
      </trkpt>
      <trkpt lat="42.905824" lon="1.478736">
        <ele>1604.6</ele>
        <time>2013-03-16T09:14:28Z</time>
      </trkpt>
      <trkpt lat="42.905812" lon="1.478842">
        <ele>1605.1</ele>
        <time>2013-03-16T09:16:09Z</time>
      </trkpt>
      <trkpt lat="42.905813" lon="1.478971">
        <ele>1605.5</ele>
        <time>2013-03-16T09:16:20Z</time>
      </trkpt>
      <trkpt lat="42.905809" lon="1.479094">
        <ele>1606.0</ele>
        <time>2013-03-16T09:16:30Z</time>
      </trkpt>
      <trkpt lat="42.905815" lon="1.479221">
        <ele>1607.5</ele>
        <time>2013-03-16T09:16:42Z</time>
      </trkpt>
      <trkpt lat="42.905818" lon="1.479343">
        <ele>1608.9</ele>
        <time>2013-03-16T09:16:54Z</time>
      </trkpt>
      <trkpt lat="42.905810" lon="1.479459">
        <ele>1609.9</ele>
        <time>2013-03-16T09:17:03Z</time>
      </trkpt>
      <trkpt lat="42.905795" lon="1.479577">
        <ele>1611.3</ele>
        <time>2013-03-16T09:17:13Z</time>
      </trkpt>
      <trkpt lat="42.905774" lon="1.479692">
        <ele>1612.3</ele>
        <time>2013-03-16T09:17:23Z</time>
      </trkpt>
      <trkpt lat="42.905774" lon="1.479831">
        <ele>1613.2</ele>
        <time>2013-03-16T09:17:33Z</time>
      </trkpt>
      <trkpt lat="42.905769" lon="1.479951">
        <ele>1614.2</ele>
        <time>2013-03-16T09:17:43Z</time>
      </trkpt>
      <trkpt lat="42.905773" lon="1.480081">
        <ele>1615.2</ele>
        <time>2013-03-16T09:17:53Z</time>
      </trkpt>
      <trkpt lat="42.905786" lon="1.480201">
        <ele>1616.1</ele>
        <time>2013-03-16T09:18:03Z</time>
      </trkpt>
      <trkpt lat="42.905773" lon="1.480321">
        <ele>1617.6</ele>
        <time>2013-03-16T09:18:14Z</time>
      </trkpt>
      <trkpt lat="42.905779" lon="1.480438">
        <ele>1618.0</ele>
        <time>2013-03-16T09:18:23Z</time>
      </trkpt>
      <trkpt lat="42.905785" lon="1.480560">
        <ele>1618.5</ele>
        <time>2013-03-16T09:18:33Z</time>
      </trkpt>
      <trkpt lat="42.905812" lon="1.480678">
        <ele>1619.0</ele>
        <time>2013-03-16T09:18:42Z</time>
      </trkpt>
      <trkpt lat="42.905829" lon="1.480803">
        <ele>1619.0</ele>
        <time>2013-03-16T09:18:52Z</time>
      </trkpt>
      <trkpt lat="42.905835" lon="1.480941">
        <ele>1619.0</ele>
        <time>2013-03-16T09:19:02Z</time>
      </trkpt>
      <trkpt lat="42.905836" lon="1.481064">
        <ele>1619.5</ele>
        <time>2013-03-16T09:19:12Z</time>
      </trkpt>
      <trkpt lat="42.905842" lon="1.481183">
        <ele>1620.4</ele>
        <time>2013-03-16T09:19:22Z</time>
      </trkpt>
      <trkpt lat="42.905843" lon="1.481301">
        <ele>1621.4</ele>
        <time>2013-03-16T09:19:32Z</time>
      </trkpt>
      <trkpt lat="42.905849" lon="1.481439">
        <ele>1622.4</ele>
        <time>2013-03-16T09:19:43Z</time>
      </trkpt>
      <trkpt lat="42.905863" lon="1.481572">
        <ele>1623.3</ele>
        <time>2013-03-16T09:19:55Z</time>
      </trkpt>
      <trkpt lat="42.905886" lon="1.481691">
        <ele>1625.2</ele>
        <time>2013-03-16T09:20:07Z</time>
      </trkpt>
      <trkpt lat="42.905899" lon="1.481815">
        <ele>1626.7</ele>
        <time>2013-03-16T09:20:21Z</time>
      </trkpt>
      <trkpt lat="42.905905" lon="1.481937">
        <ele>1628.6</ele>
        <time>2013-03-16T09:20:33Z</time>
      </trkpt>
      <trkpt lat="42.905915" lon="1.482052">
        <ele>1630.1</ele>
        <time>2013-03-16T09:20:45Z</time>
      </trkpt>
      <trkpt lat="42.905916" lon="1.482176">
        <ele>1632.0</ele>
        <time>2013-03-16T09:20:58Z</time>
      </trkpt>
      <trkpt lat="42.905933" lon="1.482296">
        <ele>1633.9</ele>
        <time>2013-03-16T09:21:11Z</time>
      </trkpt>
      <trkpt lat="42.905942" lon="1.482422">
        <ele>1635.8</ele>
        <time>2013-03-16T09:21:24Z</time>
      </trkpt>
      <trkpt lat="42.905956" lon="1.482546">
        <ele>1637.3</ele>
        <time>2013-03-16T09:21:36Z</time>
      </trkpt>
      <trkpt lat="42.905992" lon="1.482665">
        <ele>1639.2</ele>
        <time>2013-03-16T09:21:53Z</time>
      </trkpt>
      <trkpt lat="42.906024" lon="1.482768">
        <ele>1640.6</ele>
        <time>2013-03-16T09:22:09Z</time>
      </trkpt>
      <trkpt lat="42.906027" lon="1.482901">
        <ele>1644.5</ele>
        <time>2013-03-16T09:22:33Z</time>
      </trkpt>
      <trkpt lat="42.906015" lon="1.483031">
        <ele>1647.4</ele>
        <time>2013-03-16T09:22:50Z</time>
      </trkpt>
      <trkpt lat="42.906008" lon="1.483149">
        <ele>1649.3</ele>
        <time>2013-03-16T09:23:03Z</time>
      </trkpt>
      <trkpt lat="42.906002" lon="1.483272">
        <ele>1651.2</ele>
        <time>2013-03-16T09:23:16Z</time>
      </trkpt>
      <trkpt lat="42.905985" lon="1.483383">
        <ele>1652.6</ele>
        <time>2013-03-16T09:23:28Z</time>
      </trkpt>
      <trkpt lat="42.905970" lon="1.483504">
        <ele>1654.6</ele>
        <time>2013-03-16T09:23:41Z</time>
      </trkpt>
      <trkpt lat="42.905959" lon="1.483632">
        <ele>1656.0</ele>
        <time>2013-03-16T09:23:54Z</time>
      </trkpt>
      <trkpt lat="42.905947" lon="1.483767">
        <ele>1657.9</ele>
        <time>2013-03-16T09:24:07Z</time>
      </trkpt>
      <trkpt lat="42.905927" lon="1.483881">
        <ele>1659.8</ele>
        <time>2013-03-16T09:24:20Z</time>
      </trkpt>
      <trkpt lat="42.905928" lon="1.484000">
        <ele>1661.8</ele>
        <time>2013-03-16T09:24:33Z</time>
      </trkpt>
      <trkpt lat="42.905952" lon="1.484121">
        <ele>1663.7</ele>
        <time>2013-03-16T09:24:49Z</time>
      </trkpt>
      <trkpt lat="42.905989" lon="1.484228">
        <ele>1666.6</ele>
        <time>2013-03-16T09:25:04Z</time>
      </trkpt>
      <trkpt lat="42.906020" lon="1.484330">
        <ele>1668.0</ele>
        <time>2013-03-16T09:25:18Z</time>
      </trkpt>
      <trkpt lat="42.906062" lon="1.484434">
        <ele>1669.5</ele>
        <time>2013-03-16T09:25:32Z</time>
      </trkpt>
      <trkpt lat="42.906058" lon="1.484553">
        <ele>1669.9</ele>
        <time>2013-03-16T09:25:47Z</time>
      </trkpt>
      <trkpt lat="42.906080" lon="1.484674">
        <ele>1671.9</ele>
        <time>2013-03-16T09:26:01Z</time>
      </trkpt>
      <trkpt lat="42.906073" lon="1.484799">
        <ele>1674.8</ele>
        <time>2013-03-16T09:26:17Z</time>
      </trkpt>
      <trkpt lat="42.906054" lon="1.484916">
        <ele>1675.7</ele>
        <time>2013-03-16T09:26:30Z</time>
      </trkpt>
      <trkpt lat="42.906024" lon="1.485026">
        <ele>1678.1</ele>
        <time>2013-03-16T09:26:44Z</time>
      </trkpt>
      <trkpt lat="42.906020" lon="1.485153">
        <ele>1679.6</ele>
        <time>2013-03-16T09:26:58Z</time>
      </trkpt>
      <trkpt lat="42.906019" lon="1.485282">
        <ele>1681.0</ele>
        <time>2013-03-16T09:27:11Z</time>
      </trkpt>
      <trkpt lat="42.905994" lon="1.485407">
        <ele>1682.4</ele>
        <time>2013-03-16T09:27:24Z</time>
      </trkpt>
      <trkpt lat="42.905995" lon="1.485530">
        <ele>1685.3</ele>
        <time>2013-03-16T09:27:37Z</time>
      </trkpt>
      <trkpt lat="42.906008" lon="1.485644">
        <ele>1687.7</ele>
        <time>2013-03-16T09:27:53Z</time>
      </trkpt>
      <trkpt lat="42.905987" lon="1.485766">
        <ele>1690.1</ele>
        <time>2013-03-16T09:28:07Z</time>
      </trkpt>
      <trkpt lat="42.905973" lon="1.485883">
        <ele>1692.1</ele>
        <time>2013-03-16T09:28:21Z</time>
      </trkpt>
      <trkpt lat="42.905986" lon="1.485985">
        <ele>1694.5</ele>
        <time>2013-03-16T09:29:43Z</time>
      </trkpt>
      <trkpt lat="42.905968" lon="1.486114">
        <ele>1696.9</ele>
        <time>2013-03-16T09:29:56Z</time>
      </trkpt>
      <trkpt lat="42.905939" lon="1.486228">
        <ele>1697.8</ele>
        <time>2013-03-16T09:30:08Z</time>
      </trkpt>
      <trkpt lat="42.905896" lon="1.486348">
        <ele>1699.8</ele>
        <time>2013-03-16T09:30:23Z</time>
      </trkpt>
      <trkpt lat="42.905906" lon="1.486460">
        <ele>1699.8</ele>
        <time>2013-03-16T09:30:36Z</time>
      </trkpt>
      <trkpt lat="42.905889" lon="1.486570">
        <ele>1700.2</ele>
        <time>2013-03-16T09:30:47Z</time>
      </trkpt>
      <trkpt lat="42.905903" lon="1.486682">
        <ele>1701.2</ele>
        <time>2013-03-16T09:30:59Z</time>
      </trkpt>
      <trkpt lat="42.905893" lon="1.486807">
        <ele>1700.7</ele>
        <time>2013-03-16T09:31:14Z</time>
      </trkpt>
      <trkpt lat="42.905863" lon="1.486919">
        <ele>1702.2</ele>
        <time>2013-03-16T09:31:29Z</time>
        <name>Sarrat de la Pelade</name>
      </trkpt>
      <trkpt lat="42.905820" lon="1.486950">
        <ele>1703.1</ele>
        <time>2013-03-16T09:38:13Z</time>
      </trkpt>
      <trkpt lat="42.905793" lon="1.486952">
        <ele>1703.1</ele>
        <time>2013-03-16T09:40:38Z</time>
      </trkpt>
      <trkpt lat="42.905708" lon="1.487024">
        <ele>1704.6</ele>
        <time>2013-03-16T09:40:53Z</time>
      </trkpt>
      <trkpt lat="42.905680" lon="1.487114">
        <ele>1703.6</ele>
        <time>2013-03-16T09:42:08Z</time>
      </trkpt>
      <trkpt lat="42.905621" lon="1.487208">
        <ele>1703.6</ele>
        <time>2013-03-16T09:42:20Z</time>
      </trkpt>
      <trkpt lat="42.905579" lon="1.487301">
        <ele>1703.1</ele>
        <time>2013-03-16T09:42:35Z</time>
      </trkpt>
      <trkpt lat="42.905521" lon="1.487404">
        <ele>1702.2</ele>
        <time>2013-03-16T09:42:47Z</time>
      </trkpt>
      <trkpt lat="42.905451" lon="1.487495">
        <ele>1700.7</ele>
        <time>2013-03-16T09:42:57Z</time>
      </trkpt>
      <trkpt lat="42.905378" lon="1.487583">
        <ele>1699.8</ele>
        <time>2013-03-16T09:43:07Z</time>
      </trkpt>
      <trkpt lat="42.905309" lon="1.487670">
        <ele>1698.3</ele>
        <time>2013-03-16T09:43:17Z</time>
      </trkpt>
      <trkpt lat="42.905259" lon="1.487778">
        <ele>1697.8</ele>
        <time>2013-03-16T09:43:27Z</time>
      </trkpt>
      <trkpt lat="42.905210" lon="1.487895">
        <ele>1696.9</ele>
        <time>2013-03-16T09:43:38Z</time>
      </trkpt>
      <trkpt lat="42.905169" lon="1.487994">
        <ele>1696.4</ele>
        <time>2013-03-16T09:43:49Z</time>
      </trkpt>
      <trkpt lat="42.905118" lon="1.488111">
        <ele>1695.9</ele>
        <time>2013-03-16T09:44:00Z</time>
      </trkpt>
      <trkpt lat="42.905116" lon="1.488207">
        <ele>1695.4</ele>
        <time>2013-03-16T09:44:14Z</time>
      </trkpt>
      <trkpt lat="42.905063" lon="1.488327">
        <ele>1694.9</ele>
        <time>2013-03-16T09:44:26Z</time>
      </trkpt>
      <trkpt lat="42.905028" lon="1.488442">
        <ele>1694.5</ele>
        <time>2013-03-16T09:44:37Z</time>
      </trkpt>
      <trkpt lat="42.904997" lon="1.488572">
        <ele>1694.5</ele>
        <time>2013-03-16T09:44:48Z</time>
      </trkpt>
      <trkpt lat="42.904965" lon="1.488694">
        <ele>1694.0</ele>
        <time>2013-03-16T09:45:00Z</time>
      </trkpt>
      <trkpt lat="42.904920" lon="1.488807">
        <ele>1693.0</ele>
        <time>2013-03-16T09:45:12Z</time>
      </trkpt>
      <trkpt lat="42.904878" lon="1.488921">
        <ele>1692.5</ele>
        <time>2013-03-16T09:45:21Z</time>
      </trkpt>
      <trkpt lat="42.904835" lon="1.489034">
        <ele>1691.6</ele>
        <time>2013-03-16T09:45:30Z</time>
      </trkpt>
      <trkpt lat="42.904815" lon="1.489164">
        <ele>1691.1</ele>
        <time>2013-03-16T09:45:42Z</time>
      </trkpt>
      <trkpt lat="42.904794" lon="1.489289">
        <ele>1689.7</ele>
        <time>2013-03-16T09:45:53Z</time>
      </trkpt>
      <trkpt lat="42.904787" lon="1.489416">
        <ele>1688.2</ele>
        <time>2013-03-16T09:46:02Z</time>
      </trkpt>
      <trkpt lat="42.904781" lon="1.489540">
        <ele>1687.7</ele>
        <time>2013-03-16T09:46:12Z</time>
      </trkpt>
      <trkpt lat="42.904774" lon="1.489669">
        <ele>1685.3</ele>
        <time>2013-03-16T09:46:21Z</time>
      </trkpt>
      <trkpt lat="42.904781" lon="1.489800">
        <ele>1684.8</ele>
        <time>2013-03-16T09:46:31Z</time>
      </trkpt>
      <trkpt lat="42.904789" lon="1.489940">
        <ele>1683.9</ele>
        <time>2013-03-16T09:46:40Z</time>
      </trkpt>
      <trkpt lat="42.904787" lon="1.490076">
        <ele>1682.0</ele>
        <time>2013-03-16T09:46:49Z</time>
      </trkpt>
      <trkpt lat="42.904786" lon="1.490199">
        <ele>1679.6</ele>
        <time>2013-03-16T09:46:58Z</time>
      </trkpt>
      <trkpt lat="42.904788" lon="1.490334">
        <ele>1677.2</ele>
        <time>2013-03-16T09:47:07Z</time>
      </trkpt>
      <trkpt lat="42.904795" lon="1.490463">
        <ele>1674.8</ele>
        <time>2013-03-16T09:47:16Z</time>
      </trkpt>
      <trkpt lat="42.904805" lon="1.490597">
        <ele>1672.8</ele>
        <time>2013-03-16T09:47:25Z</time>
      </trkpt>
      <trkpt lat="42.904825" lon="1.490723">
        <ele>1669.9</ele>
        <time>2013-03-16T09:47:34Z</time>
      </trkpt>
      <trkpt lat="42.904844" lon="1.490853">
        <ele>1667.5</ele>
        <time>2013-03-16T09:47:43Z</time>
      </trkpt>
      <trkpt lat="42.904864" lon="1.490994">
        <ele>1665.1</ele>
        <time>2013-03-16T09:47:52Z</time>
      </trkpt>
      <trkpt lat="42.904891" lon="1.491123">
        <ele>1663.7</ele>
        <time>2013-03-16T09:48:00Z</time>
      </trkpt>
      <trkpt lat="42.904898" lon="1.491264">
        <ele>1662.7</ele>
        <time>2013-03-16T09:48:09Z</time>
      </trkpt>
      <trkpt lat="42.904917" lon="1.491397">
        <ele>1661.8</ele>
        <time>2013-03-16T09:48:17Z</time>
      </trkpt>
      <trkpt lat="42.904935" lon="1.491523">
        <ele>1660.8</ele>
        <time>2013-03-16T09:48:25Z</time>
      </trkpt>
      <trkpt lat="42.904942" lon="1.491643">
        <ele>1660.8</ele>
        <time>2013-03-16T09:48:33Z</time>
      </trkpt>
      <trkpt lat="42.904951" lon="1.491774">
        <ele>1660.3</ele>
        <time>2013-03-16T09:48:41Z</time>
      </trkpt>
      <trkpt lat="42.904947" lon="1.491901">
        <ele>1660.3</ele>
        <time>2013-03-16T09:48:50Z</time>
      </trkpt>
      <trkpt lat="42.904947" lon="1.492018">
        <ele>1660.8</ele>
        <time>2013-03-16T09:48:58Z</time>
      </trkpt>
      <trkpt lat="42.904934" lon="1.492143">
        <ele>1661.3</ele>
        <time>2013-03-16T09:49:07Z</time>
      </trkpt>
      <trkpt lat="42.904917" lon="1.492273">
        <ele>1661.3</ele>
        <time>2013-03-16T09:49:16Z</time>
      </trkpt>
      <trkpt lat="42.904910" lon="1.492406">
        <ele>1661.8</ele>
        <time>2013-03-16T09:49:25Z</time>
      </trkpt>
      <trkpt lat="42.904900" lon="1.492532">
        <ele>1661.8</ele>
        <time>2013-03-16T09:49:34Z</time>
      </trkpt>
      <trkpt lat="42.904888" lon="1.492663">
        <ele>1662.3</ele>
        <time>2013-03-16T09:49:43Z</time>
      </trkpt>
      <trkpt lat="42.904878" lon="1.492787">
        <ele>1662.3</ele>
        <time>2013-03-16T09:49:52Z</time>
      </trkpt>
      <trkpt lat="42.904885" lon="1.492922">
        <ele>1662.7</ele>
        <time>2013-03-16T09:50:02Z</time>
      </trkpt>
      <trkpt lat="42.904892" lon="1.493051">
        <ele>1662.3</ele>
        <time>2013-03-16T09:50:11Z</time>
      </trkpt>
      <trkpt lat="42.904898" lon="1.493166">
        <ele>1662.7</ele>
        <time>2013-03-16T09:50:20Z</time>
      </trkpt>
      <trkpt lat="42.904899" lon="1.493301">
        <ele>1663.2</ele>
        <time>2013-03-16T09:50:30Z</time>
      </trkpt>
      <trkpt lat="42.904916" lon="1.493435">
        <ele>1663.2</ele>
        <time>2013-03-16T09:50:42Z</time>
      </trkpt>
      <trkpt lat="42.904935" lon="1.493568">
        <ele>1663.2</ele>
        <time>2013-03-16T09:50:52Z</time>
      </trkpt>
      <trkpt lat="42.904937" lon="1.493694">
        <ele>1663.2</ele>
        <time>2013-03-16T09:51:03Z</time>
      </trkpt>
      <trkpt lat="42.904966" lon="1.493811">
        <ele>1663.7</ele>
        <time>2013-03-16T09:51:14Z</time>
      </trkpt>
      <trkpt lat="42.904981" lon="1.493944">
        <ele>1664.7</ele>
        <time>2013-03-16T09:51:24Z</time>
      </trkpt>
      <trkpt lat="42.905004" lon="1.494065">
        <ele>1664.2</ele>
        <time>2013-03-16T09:51:35Z</time>
      </trkpt>
      <trkpt lat="42.905040" lon="1.494190">
        <ele>1665.1</ele>
        <time>2013-03-16T09:51:48Z</time>
      </trkpt>
      <trkpt lat="42.905074" lon="1.494301">
        <ele>1666.1</ele>
        <time>2013-03-16T09:52:01Z</time>
      </trkpt>
      <trkpt lat="42.905108" lon="1.494428">
        <ele>1667.1</ele>
        <time>2013-03-16T09:52:20Z</time>
      </trkpt>
      <trkpt lat="42.905144" lon="1.494554">
        <ele>1668.0</ele>
        <time>2013-03-16T09:52:35Z</time>
      </trkpt>
      <trkpt lat="42.905160" lon="1.494675">
        <ele>1669.5</ele>
        <time>2013-03-16T09:52:46Z</time>
      </trkpt>
      <trkpt lat="42.905193" lon="1.494783">
        <ele>1672.8</ele>
        <time>2013-03-16T09:52:55Z</time>
      </trkpt>
      <trkpt lat="42.905287" lon="1.494800">
        <ele>1674.8</ele>
        <time>2013-03-16T09:53:07Z</time>
      </trkpt>
      <trkpt lat="42.905370" lon="1.494768">
        <ele>1677.2</ele>
        <time>2013-03-16T09:53:23Z</time>
      </trkpt>
      <trkpt lat="42.905426" lon="1.494845">
        <ele>1675.7</ele>
        <time>2013-03-16T09:56:36Z</time>
      </trkpt>
      <trkpt lat="42.905492" lon="1.494930">
        <ele>1671.4</ele>
        <time>2013-03-16T09:56:47Z</time>
      </trkpt>
      <trkpt lat="42.905543" lon="1.495048">
        <ele>1668.0</ele>
        <time>2013-03-16T09:56:56Z</time>
      </trkpt>
      <trkpt lat="42.905598" lon="1.495132">
        <ele>1666.6</ele>
        <time>2013-03-16T09:57:06Z</time>
      </trkpt>
      <trkpt lat="42.905671" lon="1.495212">
        <ele>1666.6</ele>
        <time>2013-03-16T09:57:15Z</time>
      </trkpt>
      <trkpt lat="42.905733" lon="1.495309">
        <ele>1665.6</ele>
        <time>2013-03-16T09:57:24Z</time>
      </trkpt>
      <trkpt lat="42.905797" lon="1.495406">
        <ele>1664.7</ele>
        <time>2013-03-16T09:57:33Z</time>
      </trkpt>
      <trkpt lat="42.905848" lon="1.495528">
        <ele>1664.7</ele>
        <time>2013-03-16T09:57:42Z</time>
      </trkpt>
      <trkpt lat="42.905886" lon="1.495645">
        <ele>1663.2</ele>
        <time>2013-03-16T09:57:51Z</time>
      </trkpt>
      <trkpt lat="42.905926" lon="1.495760">
        <ele>1662.7</ele>
        <time>2013-03-16T09:58:00Z</time>
      </trkpt>
      <trkpt lat="42.905940" lon="1.495879">
        <ele>1662.3</ele>
        <time>2013-03-16T09:58:09Z</time>
      </trkpt>
      <trkpt lat="42.905976" lon="1.496003">
        <ele>1660.8</ele>
        <time>2013-03-16T09:58:19Z</time>
      </trkpt>
      <trkpt lat="42.906000" lon="1.496124">
        <ele>1658.9</ele>
        <time>2013-03-16T09:58:29Z</time>
      </trkpt>
      <trkpt lat="42.906019" lon="1.496241">
        <ele>1657.9</ele>
        <time>2013-03-16T09:58:38Z</time>
      </trkpt>
      <trkpt lat="42.906050" lon="1.496364">
        <ele>1657.4</ele>
        <time>2013-03-16T09:58:47Z</time>
      </trkpt>
      <trkpt lat="42.906079" lon="1.496493">
        <ele>1655.5</ele>
        <time>2013-03-16T09:58:57Z</time>
      </trkpt>
      <trkpt lat="42.906096" lon="1.496620">
        <ele>1654.1</ele>
        <time>2013-03-16T09:59:20Z</time>
      </trkpt>
      <trkpt lat="42.906089" lon="1.496762">
        <ele>1652.2</ele>
        <time>2013-03-16T09:59:31Z</time>
      </trkpt>
      <trkpt lat="42.906096" lon="1.496876">
        <ele>1651.2</ele>
        <time>2013-03-16T09:59:40Z</time>
      </trkpt>
      <trkpt lat="42.906141" lon="1.496990">
        <ele>1648.8</ele>
        <time>2013-03-16T09:59:50Z</time>
      </trkpt>
      <trkpt lat="42.906143" lon="1.497124">
        <ele>1647.4</ele>
        <time>2013-03-16T09:59:59Z</time>
      </trkpt>
      <trkpt lat="42.906137" lon="1.497244">
        <ele>1645.9</ele>
        <time>2013-03-16T10:00:06Z</time>
      </trkpt>
      <trkpt lat="42.906120" lon="1.497376">
        <ele>1645.9</ele>
        <time>2013-03-16T10:00:16Z</time>
      </trkpt>
      <trkpt lat="42.906072" lon="1.497501">
        <ele>1645.4</ele>
        <time>2013-03-16T10:00:25Z</time>
      </trkpt>
      <trkpt lat="42.906027" lon="1.497579">
        <ele>1644.5</ele>
        <time>2013-03-16T10:00:43Z</time>
      </trkpt>
      <trkpt lat="42.906019" lon="1.497587">
        <ele>1644.0</ele>
        <time>2013-03-16T10:02:49Z</time>
      </trkpt>
      <trkpt lat="42.906038" lon="1.497658">
        <ele>1644.0</ele>
        <time>2013-03-16T10:03:31Z</time>
      </trkpt>
      <trkpt lat="42.906083" lon="1.497782">
        <ele>1644.5</ele>
        <time>2013-03-16T10:03:41Z</time>
      </trkpt>
      <trkpt lat="42.906092" lon="1.497905">
        <ele>1645.4</ele>
        <time>2013-03-16T10:03:51Z</time>
      </trkpt>
      <trkpt lat="42.906115" lon="1.498025">
        <ele>1646.4</ele>
        <time>2013-03-16T10:04:01Z</time>
      </trkpt>
      <trkpt lat="42.906113" lon="1.498165">
        <ele>1647.4</ele>
        <time>2013-03-16T10:04:11Z</time>
      </trkpt>
      <trkpt lat="42.906112" lon="1.498297">
        <ele>1647.4</ele>
        <time>2013-03-16T10:04:20Z</time>
      </trkpt>
      <trkpt lat="42.906119" lon="1.498431">
        <ele>1647.8</ele>
        <time>2013-03-16T10:04:30Z</time>
      </trkpt>
      <trkpt lat="42.906129" lon="1.498549">
        <ele>1648.3</ele>
        <time>2013-03-16T10:04:40Z</time>
      </trkpt>
      <trkpt lat="42.906131" lon="1.498683">
        <ele>1648.8</ele>
        <time>2013-03-16T10:04:49Z</time>
      </trkpt>
      <trkpt lat="42.906152" lon="1.498811">
        <ele>1649.8</ele>
        <time>2013-03-16T10:04:58Z</time>
      </trkpt>
      <trkpt lat="42.906166" lon="1.498946">
        <ele>1650.7</ele>
        <time>2013-03-16T10:05:07Z</time>
      </trkpt>
      <trkpt lat="42.906182" lon="1.499067">
        <ele>1651.7</ele>
        <time>2013-03-16T10:05:16Z</time>
      </trkpt>
      <trkpt lat="42.906188" lon="1.499188">
        <ele>1652.6</ele>
        <time>2013-03-16T10:05:26Z</time>
      </trkpt>
      <trkpt lat="42.906207" lon="1.499309">
        <ele>1653.6</ele>
        <time>2013-03-16T10:05:36Z</time>
      </trkpt>
      <trkpt lat="42.906225" lon="1.499434">
        <ele>1654.6</ele>
        <time>2013-03-16T10:05:46Z</time>
      </trkpt>
      <trkpt lat="42.906235" lon="1.499553">
        <ele>1656.0</ele>
        <time>2013-03-16T10:05:57Z</time>
      </trkpt>
      <trkpt lat="42.906227" lon="1.499671">
        <ele>1657.4</ele>
        <time>2013-03-16T10:06:08Z</time>
      </trkpt>
      <trkpt lat="42.906227" lon="1.499796">
        <ele>1659.8</ele>
        <time>2013-03-16T10:06:20Z</time>
      </trkpt>
      <trkpt lat="42.906220" lon="1.499919">
        <ele>1661.8</ele>
        <time>2013-03-16T10:06:31Z</time>
      </trkpt>
      <trkpt lat="42.906206" lon="1.500036">
        <ele>1662.7</ele>
        <time>2013-03-16T10:06:41Z</time>
      </trkpt>
      <trkpt lat="42.906210" lon="1.500162">
        <ele>1663.7</ele>
        <time>2013-03-16T10:06:53Z</time>
      </trkpt>
      <trkpt lat="42.906201" lon="1.500286">
        <ele>1665.6</ele>
        <time>2013-03-16T10:07:03Z</time>
      </trkpt>
      <trkpt lat="42.906199" lon="1.500407">
        <ele>1667.5</ele>
        <time>2013-03-16T10:07:15Z</time>
      </trkpt>
      <trkpt lat="42.906197" lon="1.500538">
        <ele>1669.0</ele>
        <time>2013-03-16T10:07:27Z</time>
      </trkpt>
      <trkpt lat="42.906205" lon="1.500643">
        <ele>1670.4</ele>
        <time>2013-03-16T10:07:39Z</time>
      </trkpt>
      <trkpt lat="42.906217" lon="1.500763">
        <ele>1672.8</ele>
        <time>2013-03-16T10:07:49Z</time>
      </trkpt>
      <trkpt lat="42.906240" lon="1.500885">
        <ele>1674.8</ele>
        <time>2013-03-16T10:08:03Z</time>
      </trkpt>
      <trkpt lat="42.906249" lon="1.500996">
        <ele>1676.7</ele>
        <time>2013-03-16T10:08:18Z</time>
      </trkpt>
      <trkpt lat="42.906261" lon="1.501119">
        <ele>1678.1</ele>
        <time>2013-03-16T10:08:31Z</time>
      </trkpt>
      <trkpt lat="42.906240" lon="1.501241">
        <ele>1679.6</ele>
        <time>2013-03-16T10:08:42Z</time>
      </trkpt>
      <trkpt lat="42.906223" lon="1.501371">
        <ele>1680.5</ele>
        <time>2013-03-16T10:08:56Z</time>
      </trkpt>
      <trkpt lat="42.906211" lon="1.501497">
        <ele>1680.5</ele>
        <time>2013-03-16T10:09:07Z</time>
      </trkpt>
      <trkpt lat="42.906238" lon="1.501618">
        <ele>1682.9</ele>
        <time>2013-03-16T10:09:19Z</time>
      </trkpt>
      <trkpt lat="42.906227" lon="1.501728">
        <ele>1683.9</ele>
        <time>2013-03-16T10:09:33Z</time>
      </trkpt>
      <trkpt lat="42.906164" lon="1.501831">
        <ele>1683.9</ele>
        <time>2013-03-16T10:09:43Z</time>
      </trkpt>
      <trkpt lat="42.906102" lon="1.501915">
        <ele>1684.4</ele>
        <time>2013-03-16T10:09:53Z</time>
      </trkpt>
      <trkpt lat="42.906056" lon="1.502021">
        <ele>1685.3</ele>
        <time>2013-03-16T10:10:04Z</time>
      </trkpt>
      <trkpt lat="42.906028" lon="1.502138">
        <ele>1686.8</ele>
        <time>2013-03-16T10:10:18Z</time>
      </trkpt>
      <trkpt lat="42.906027" lon="1.502249">
        <ele>1688.2</ele>
        <time>2013-03-16T10:10:34Z</time>
      </trkpt>
      <trkpt lat="42.906002" lon="1.502376">
        <ele>1690.1</ele>
        <time>2013-03-16T10:10:46Z</time>
      </trkpt>
      <trkpt lat="42.906063" lon="1.502479">
        <ele>1693.0</ele>
        <time>2013-03-16T10:10:58Z</time>
      </trkpt>
      <trkpt lat="42.906096" lon="1.502606">
        <ele>1694.5</ele>
        <time>2013-03-16T10:11:10Z</time>
      </trkpt>
      <trkpt lat="42.906088" lon="1.502729">
        <ele>1695.9</ele>
        <time>2013-03-16T10:11:21Z</time>
      </trkpt>
      <trkpt lat="42.906079" lon="1.502868">
        <ele>1696.9</ele>
        <time>2013-03-16T10:11:32Z</time>
      </trkpt>
      <trkpt lat="42.906066" lon="1.502994">
        <ele>1697.8</ele>
        <time>2013-03-16T10:11:43Z</time>
      </trkpt>
      <trkpt lat="42.906071" lon="1.503122">
        <ele>1697.8</ele>
        <time>2013-03-16T10:11:54Z</time>
      </trkpt>
      <trkpt lat="42.906086" lon="1.503243">
        <ele>1698.3</ele>
        <time>2013-03-16T10:12:04Z</time>
      </trkpt>
      <trkpt lat="42.906084" lon="1.503379">
        <ele>1698.3</ele>
        <time>2013-03-16T10:12:14Z</time>
      </trkpt>
      <trkpt lat="42.906075" lon="1.503501">
        <ele>1699.3</ele>
        <time>2013-03-16T10:12:50Z</time>
      </trkpt>
      <trkpt lat="42.906081" lon="1.503623">
        <ele>1699.3</ele>
        <time>2013-03-16T10:13:01Z</time>
      </trkpt>
      <trkpt lat="42.906071" lon="1.503751">
        <ele>1699.8</ele>
        <time>2013-03-16T10:13:12Z</time>
      </trkpt>
      <trkpt lat="42.906064" lon="1.503875">
        <ele>1699.8</ele>
        <time>2013-03-16T10:13:24Z</time>
      </trkpt>
      <trkpt lat="42.906055" lon="1.503996">
        <ele>1699.3</ele>
        <time>2013-03-16T10:13:34Z</time>
      </trkpt>
      <trkpt lat="42.906035" lon="1.504113">
        <ele>1700.2</ele>
        <time>2013-03-16T10:13:44Z</time>
      </trkpt>
      <trkpt lat="42.906037" lon="1.504242">
        <ele>1700.7</ele>
        <time>2013-03-16T10:13:55Z</time>
      </trkpt>
      <trkpt lat="42.906025" lon="1.504366">
        <ele>1700.7</ele>
        <time>2013-03-16T10:14:05Z</time>
      </trkpt>
      <trkpt lat="42.906018" lon="1.504488">
        <ele>1701.2</ele>
        <time>2013-03-16T10:14:15Z</time>
      </trkpt>
      <trkpt lat="42.906002" lon="1.504607">
        <ele>1702.2</ele>
        <time>2013-03-16T10:14:25Z</time>
      </trkpt>
      <trkpt lat="42.905986" lon="1.504723">
        <ele>1702.2</ele>
        <time>2013-03-16T10:14:36Z</time>
      </trkpt>
      <trkpt lat="42.905970" lon="1.504838">
        <ele>1702.6</ele>
        <time>2013-03-16T10:14:47Z</time>
      </trkpt>
      <trkpt lat="42.905949" lon="1.504969">
        <ele>1702.6</ele>
        <time>2013-03-16T10:14:58Z</time>
      </trkpt>
      <trkpt lat="42.905933" lon="1.505086">
        <ele>1703.1</ele>
        <time>2013-03-16T10:15:09Z</time>
      </trkpt>
      <trkpt lat="42.905894" lon="1.505202">
        <ele>1703.6</ele>
        <time>2013-03-16T10:15:20Z</time>
      </trkpt>
      <trkpt lat="42.905869" lon="1.505322">
        <ele>1704.1</ele>
        <time>2013-03-16T10:15:31Z</time>
      </trkpt>
      <trkpt lat="42.905837" lon="1.505449">
        <ele>1706.5</ele>
        <time>2013-03-16T10:15:46Z</time>
      </trkpt>
      <trkpt lat="42.905810" lon="1.505576">
        <ele>1707.4</ele>
        <time>2013-03-16T10:16:10Z</time>
      </trkpt>
      <trkpt lat="42.905753" lon="1.505670">
        <ele>1709.4</ele>
        <time>2013-03-16T10:16:22Z</time>
      </trkpt>
      <trkpt lat="42.905701" lon="1.505767">
        <ele>1709.8</ele>
        <time>2013-03-16T10:16:36Z</time>
      </trkpt>
      <trkpt lat="42.905649" lon="1.505865">
        <ele>1712.7</ele>
        <time>2013-03-16T10:16:56Z</time>
      </trkpt>
      <trkpt lat="42.905605" lon="1.506008">
        <ele>1716.6</ele>
        <time>2013-03-16T10:17:17Z</time>
      </trkpt>
      <trkpt lat="42.905566" lon="1.506133">
        <ele>1718.5</ele>
        <time>2013-03-16T10:17:35Z</time>
      </trkpt>
      <trkpt lat="42.905581" lon="1.506225">
        <ele>1719.0</ele>
        <time>2013-03-16T10:17:53Z</time>
      </trkpt>
      <trkpt lat="42.905607" lon="1.506216">
        <ele>1714.2</ele>
        <time>2013-03-16T11:42:14Z</time>
        <name>Rocher de Batail</name>
      </trkpt>
      <trkpt lat="42.905632" lon="1.506064">
        <ele>1715.6</ele>
        <time>2013-03-16T11:42:27Z</time>
      </trkpt>
      <trkpt lat="42.905685" lon="1.505977">
        <ele>1712.2</ele>
        <time>2013-03-16T11:42:39Z</time>
      </trkpt>
      <trkpt lat="42.905752" lon="1.505931">
        <ele>1711.3</ele>
        <time>2013-03-16T11:42:56Z</time>
      </trkpt>
      <trkpt lat="42.905772" lon="1.505816">
        <ele>1708.9</ele>
        <time>2013-03-16T11:43:08Z</time>
      </trkpt>
      <trkpt lat="42.905807" lon="1.505699">
        <ele>1707.0</ele>
        <time>2013-03-16T11:43:19Z</time>
      </trkpt>
      <trkpt lat="42.905815" lon="1.505573">
        <ele>1705.5</ele>
        <time>2013-03-16T11:43:29Z</time>
      </trkpt>
      <trkpt lat="42.905844" lon="1.505448">
        <ele>1705.0</ele>
        <time>2013-03-16T11:43:40Z</time>
      </trkpt>
      <trkpt lat="42.905876" lon="1.505327">
        <ele>1704.1</ele>
        <time>2013-03-16T11:43:51Z</time>
      </trkpt>
      <trkpt lat="42.905901" lon="1.505204">
        <ele>1703.6</ele>
        <time>2013-03-16T11:44:02Z</time>
      </trkpt>
      <trkpt lat="42.905933" lon="1.505084">
        <ele>1702.6</ele>
        <time>2013-03-16T11:44:13Z</time>
      </trkpt>
      <trkpt lat="42.905953" lon="1.504953">
        <ele>1702.2</ele>
        <time>2013-03-16T11:44:24Z</time>
      </trkpt>
      <trkpt lat="42.905970" lon="1.504818">
        <ele>1700.7</ele>
        <time>2013-03-16T11:44:35Z</time>
      </trkpt>
      <trkpt lat="42.905985" lon="1.504689">
        <ele>1699.8</ele>
        <time>2013-03-16T11:44:45Z</time>
      </trkpt>
      <trkpt lat="42.905997" lon="1.504550">
        <ele>1698.3</ele>
        <time>2013-03-16T11:44:56Z</time>
      </trkpt>
      <trkpt lat="42.906005" lon="1.504421">
        <ele>1698.3</ele>
        <time>2013-03-16T11:45:06Z</time>
      </trkpt>
      <trkpt lat="42.906006" lon="1.504302">
        <ele>1697.3</ele>
        <time>2013-03-16T11:45:16Z</time>
      </trkpt>
      <trkpt lat="42.906015" lon="1.504179">
        <ele>1696.9</ele>
        <time>2013-03-16T11:45:26Z</time>
      </trkpt>
      <trkpt lat="42.906027" lon="1.504055">
        <ele>1697.3</ele>
        <time>2013-03-16T11:45:36Z</time>
      </trkpt>
      <trkpt lat="42.906045" lon="1.503938">
        <ele>1696.9</ele>
        <time>2013-03-16T11:45:45Z</time>
      </trkpt>
      <trkpt lat="42.906058" lon="1.503812">
        <ele>1697.3</ele>
        <time>2013-03-16T11:45:55Z</time>
      </trkpt>
      <trkpt lat="42.906075" lon="1.503691">
        <ele>1697.8</ele>
        <time>2013-03-16T11:46:07Z</time>
      </trkpt>
      <trkpt lat="42.906090" lon="1.503575">
        <ele>1696.9</ele>
        <time>2013-03-16T11:46:17Z</time>
      </trkpt>
      <trkpt lat="42.906103" lon="1.503445">
        <ele>1696.4</ele>
        <time>2013-03-16T11:46:27Z</time>
      </trkpt>
      <trkpt lat="42.906127" lon="1.503318">
        <ele>1696.9</ele>
        <time>2013-03-16T11:46:36Z</time>
      </trkpt>
      <trkpt lat="42.906144" lon="1.503186">
        <ele>1694.9</ele>
        <time>2013-03-16T11:46:46Z</time>
      </trkpt>
      <trkpt lat="42.906177" lon="1.503064">
        <ele>1694.0</ele>
        <time>2013-03-16T11:46:56Z</time>
      </trkpt>
      <trkpt lat="42.906196" lon="1.502943">
        <ele>1694.0</ele>
        <time>2013-03-16T11:47:05Z</time>
      </trkpt>
      <trkpt lat="42.906225" lon="1.502819">
        <ele>1692.1</ele>
        <time>2013-03-16T11:47:15Z</time>
      </trkpt>
      <trkpt lat="42.906256" lon="1.502695">
        <ele>1691.1</ele>
        <time>2013-03-16T11:47:24Z</time>
      </trkpt>
      <trkpt lat="42.906279" lon="1.502560">
        <ele>1688.2</ele>
        <time>2013-03-16T11:47:34Z</time>
      </trkpt>
      <trkpt lat="42.906298" lon="1.502427">
        <ele>1687.7</ele>
        <time>2013-03-16T11:47:44Z</time>
      </trkpt>
      <trkpt lat="42.906327" lon="1.502308">
        <ele>1687.7</ele>
        <time>2013-03-16T11:47:54Z</time>
      </trkpt>
      <trkpt lat="42.906357" lon="1.502190">
        <ele>1686.8</ele>
        <time>2013-03-16T11:48:04Z</time>
      </trkpt>
      <trkpt lat="42.906404" lon="1.502061">
        <ele>1686.3</ele>
        <time>2013-03-16T11:48:14Z</time>
      </trkpt>
      <trkpt lat="42.906430" lon="1.501939">
        <ele>1684.4</ele>
        <time>2013-03-16T11:48:23Z</time>
      </trkpt>
      <trkpt lat="42.906426" lon="1.501813">
        <ele>1683.4</ele>
        <time>2013-03-16T11:48:33Z</time>
      </trkpt>
      <trkpt lat="42.906419" lon="1.501700">
        <ele>1682.9</ele>
        <time>2013-03-16T11:48:45Z</time>
      </trkpt>
      <trkpt lat="42.906456" lon="1.501606">
        <ele>1683.4</ele>
        <time>2013-03-16T11:49:36Z</time>
      </trkpt>
      <trkpt lat="42.906427" lon="1.501499">
        <ele>1679.6</ele>
        <time>2013-03-16T11:49:49Z</time>
      </trkpt>
      <trkpt lat="42.906410" lon="1.501379">
        <ele>1678.1</ele>
        <time>2013-03-16T11:50:07Z</time>
      </trkpt>
      <trkpt lat="42.906401" lon="1.501246">
        <ele>1675.2</ele>
        <time>2013-03-16T11:50:16Z</time>
      </trkpt>
      <trkpt lat="42.906359" lon="1.501142">
        <ele>1673.3</ele>
        <time>2013-03-16T11:50:27Z</time>
      </trkpt>
      <trkpt lat="42.906334" lon="1.501016">
        <ele>1673.3</ele>
        <time>2013-03-16T11:50:38Z</time>
      </trkpt>
      <trkpt lat="42.906327" lon="1.500893">
        <ele>1671.4</ele>
        <time>2013-03-16T11:50:49Z</time>
      </trkpt>
      <trkpt lat="42.906315" lon="1.500775">
        <ele>1670.4</ele>
        <time>2013-03-16T11:50:59Z</time>
      </trkpt>
      <trkpt lat="42.906277" lon="1.500669">
        <ele>1668.0</ele>
        <time>2013-03-16T11:51:09Z</time>
      </trkpt>
      <trkpt lat="42.906239" lon="1.500561">
        <ele>1667.1</ele>
        <time>2013-03-16T11:51:19Z</time>
      </trkpt>
      <trkpt lat="42.906230" lon="1.500433">
        <ele>1664.2</ele>
        <time>2013-03-16T11:51:29Z</time>
      </trkpt>
      <trkpt lat="42.906224" lon="1.500307">
        <ele>1661.8</ele>
        <time>2013-03-16T11:51:40Z</time>
      </trkpt>
      <trkpt lat="42.906221" lon="1.500180">
        <ele>1659.8</ele>
        <time>2013-03-16T11:51:49Z</time>
      </trkpt>
      <trkpt lat="42.906235" lon="1.500070">
        <ele>1659.4</ele>
        <time>2013-03-16T11:51:58Z</time>
      </trkpt>
      <trkpt lat="42.906226" lon="1.499949">
        <ele>1658.4</ele>
        <time>2013-03-16T11:52:07Z</time>
      </trkpt>
      <trkpt lat="42.906242" lon="1.499824">
        <ele>1657.9</ele>
        <time>2013-03-16T11:52:16Z</time>
      </trkpt>
      <trkpt lat="42.906226" lon="1.499701">
        <ele>1655.5</ele>
        <time>2013-03-16T11:52:25Z</time>
      </trkpt>
      <trkpt lat="42.906240" lon="1.499571">
        <ele>1654.1</ele>
        <time>2013-03-16T11:52:35Z</time>
      </trkpt>
      <trkpt lat="42.906246" lon="1.499453">
        <ele>1653.1</ele>
        <time>2013-03-16T11:52:44Z</time>
      </trkpt>
      <trkpt lat="42.906226" lon="1.499342">
        <ele>1652.6</ele>
        <time>2013-03-16T11:52:54Z</time>
      </trkpt>
      <trkpt lat="42.906212" lon="1.499228">
        <ele>1651.2</ele>
        <time>2013-03-16T11:53:05Z</time>
      </trkpt>
      <trkpt lat="42.906183" lon="1.499141">
        <ele>1651.2</ele>
        <time>2013-03-16T11:53:16Z</time>
      </trkpt>
      <trkpt lat="42.906159" lon="1.499020">
        <ele>1648.3</ele>
        <time>2013-03-16T11:54:31Z</time>
      </trkpt>
      <trkpt lat="42.906145" lon="1.498890">
        <ele>1647.8</ele>
        <time>2013-03-16T11:54:41Z</time>
      </trkpt>
      <trkpt lat="42.906130" lon="1.498769">
        <ele>1647.4</ele>
        <time>2013-03-16T11:54:50Z</time>
      </trkpt>
      <trkpt lat="42.906122" lon="1.498639">
        <ele>1647.8</ele>
        <time>2013-03-16T11:54:59Z</time>
      </trkpt>
      <trkpt lat="42.906120" lon="1.498505">
        <ele>1647.4</ele>
        <time>2013-03-16T11:55:08Z</time>
      </trkpt>
      <trkpt lat="42.906112" lon="1.498374">
        <ele>1647.4</ele>
        <time>2013-03-16T11:55:17Z</time>
      </trkpt>
      <trkpt lat="42.906110" lon="1.498254">
        <ele>1645.9</ele>
        <time>2013-03-16T11:55:25Z</time>
      </trkpt>
      <trkpt lat="42.906115" lon="1.498131">
        <ele>1645.4</ele>
        <time>2013-03-16T11:55:33Z</time>
      </trkpt>
      <trkpt lat="42.906116" lon="1.498000">
        <ele>1644.5</ele>
        <time>2013-03-16T11:55:42Z</time>
      </trkpt>
      <trkpt lat="42.906128" lon="1.497877">
        <ele>1644.5</ele>
        <time>2013-03-16T11:55:51Z</time>
      </trkpt>
      <trkpt lat="42.906126" lon="1.497746">
        <ele>1643.5</ele>
        <time>2013-03-16T11:56:00Z</time>
      </trkpt>
      <trkpt lat="42.906136" lon="1.497616">
        <ele>1644.0</ele>
        <time>2013-03-16T11:56:09Z</time>
      </trkpt>
      <trkpt lat="42.906135" lon="1.497487">
        <ele>1644.5</ele>
        <time>2013-03-16T11:56:18Z</time>
      </trkpt>
      <trkpt lat="42.906144" lon="1.497365">
        <ele>1645.4</ele>
        <time>2013-03-16T11:56:27Z</time>
      </trkpt>
      <trkpt lat="42.906140" lon="1.497239">
        <ele>1645.9</ele>
        <time>2013-03-16T11:56:39Z</time>
      </trkpt>
      <trkpt lat="42.906151" lon="1.497108">
        <ele>1647.4</ele>
        <time>2013-03-16T11:56:50Z</time>
      </trkpt>
      <trkpt lat="42.906146" lon="1.496980">
        <ele>1647.8</ele>
        <time>2013-03-16T11:57:02Z</time>
      </trkpt>
      <trkpt lat="42.906129" lon="1.496862">
        <ele>1649.8</ele>
        <time>2013-03-16T11:57:13Z</time>
      </trkpt>
      <trkpt lat="42.906137" lon="1.496734">
        <ele>1650.7</ele>
        <time>2013-03-16T11:57:25Z</time>
      </trkpt>
      <trkpt lat="42.906113" lon="1.496620">
        <ele>1652.6</ele>
        <time>2013-03-16T11:57:36Z</time>
      </trkpt>
      <trkpt lat="42.906112" lon="1.496493">
        <ele>1654.1</ele>
        <time>2013-03-16T11:57:46Z</time>
      </trkpt>
      <trkpt lat="42.906091" lon="1.496373">
        <ele>1655.5</ele>
        <time>2013-03-16T11:57:57Z</time>
      </trkpt>
      <trkpt lat="42.906070" lon="1.496255">
        <ele>1655.5</ele>
        <time>2013-03-16T11:58:07Z</time>
      </trkpt>
      <trkpt lat="42.906053" lon="1.496139">
        <ele>1656.5</ele>
        <time>2013-03-16T11:58:17Z</time>
      </trkpt>
      <trkpt lat="42.906030" lon="1.496023">
        <ele>1657.9</ele>
        <time>2013-03-16T11:58:28Z</time>
      </trkpt>
      <trkpt lat="42.906008" lon="1.495918">
        <ele>1659.8</ele>
        <time>2013-03-16T11:58:39Z</time>
      </trkpt>
      <trkpt lat="42.905971" lon="1.495826">
        <ele>1660.8</ele>
        <time>2013-03-16T11:58:50Z</time>
      </trkpt>
      <trkpt lat="42.905971" lon="1.495695">
        <ele>1662.3</ele>
        <time>2013-03-16T11:59:01Z</time>
      </trkpt>
      <trkpt lat="42.905959" lon="1.495574">
        <ele>1661.8</ele>
        <time>2013-03-16T11:59:11Z</time>
      </trkpt>
      <trkpt lat="42.905938" lon="1.495445">
        <ele>1662.7</ele>
        <time>2013-03-16T11:59:22Z</time>
      </trkpt>
      <trkpt lat="42.905901" lon="1.495324">
        <ele>1664.2</ele>
        <time>2013-03-16T11:59:32Z</time>
      </trkpt>
      <trkpt lat="42.905853" lon="1.495211">
        <ele>1665.1</ele>
        <time>2013-03-16T11:59:43Z</time>
      </trkpt>
      <trkpt lat="42.905802" lon="1.495107">
        <ele>1666.6</ele>
        <time>2013-03-16T11:59:54Z</time>
      </trkpt>
      <trkpt lat="42.905739" lon="1.494999">
        <ele>1667.1</ele>
        <time>2013-03-16T12:00:06Z</time>
      </trkpt>
      <trkpt lat="42.905683" lon="1.494909">
        <ele>1669.0</ele>
        <time>2013-03-16T12:00:17Z</time>
      </trkpt>
      <trkpt lat="42.905646" lon="1.494806">
        <ele>1671.4</ele>
        <time>2013-03-16T12:00:40Z</time>
      </trkpt>
      <trkpt lat="42.905603" lon="1.494704">
        <ele>1674.3</ele>
        <time>2013-03-16T12:01:02Z</time>
      </trkpt>
      <trkpt lat="42.905574" lon="1.494567">
        <ele>1677.2</ele>
        <time>2013-03-16T12:01:18Z</time>
      </trkpt>
      <trkpt lat="42.905556" lon="1.494450">
        <ele>1679.6</ele>
        <time>2013-03-16T12:01:34Z</time>
      </trkpt>
      <trkpt lat="42.905522" lon="1.494351">
        <ele>1682.0</ele>
        <time>2013-03-16T12:01:50Z</time>
      </trkpt>
      <trkpt lat="42.905509" lon="1.494227">
        <ele>1679.6</ele>
        <time>2013-03-16T12:02:06Z</time>
      </trkpt>
      <trkpt lat="42.905534" lon="1.494118">
        <ele>1680.0</ele>
        <time>2013-03-16T12:02:17Z</time>
      </trkpt>
      <trkpt lat="42.905596" lon="1.494055">
        <ele>1679.6</ele>
        <time>2013-03-16T12:02:35Z</time>
      </trkpt>
      <trkpt lat="42.905583" lon="1.493919">
        <ele>1677.6</ele>
        <time>2013-03-16T12:02:46Z</time>
      </trkpt>
      <trkpt lat="42.905594" lon="1.493795">
        <ele>1676.7</ele>
        <time>2013-03-16T12:02:56Z</time>
      </trkpt>
      <trkpt lat="42.905587" lon="1.493655">
        <ele>1675.2</ele>
        <time>2013-03-16T12:03:07Z</time>
      </trkpt>
      <trkpt lat="42.905578" lon="1.493519">
        <ele>1674.3</ele>
        <time>2013-03-16T12:03:17Z</time>
      </trkpt>
      <trkpt lat="42.905569" lon="1.493392">
        <ele>1672.3</ele>
        <time>2013-03-16T12:03:26Z</time>
      </trkpt>
      <trkpt lat="42.905552" lon="1.493274">
        <ele>1672.3</ele>
        <time>2013-03-16T12:03:35Z</time>
      </trkpt>
      <trkpt lat="42.905528" lon="1.493170">
        <ele>1671.4</ele>
        <time>2013-03-16T12:03:45Z</time>
      </trkpt>
      <trkpt lat="42.905500" lon="1.493038">
        <ele>1670.9</ele>
        <time>2013-03-16T12:03:55Z</time>
      </trkpt>
      <trkpt lat="42.905481" lon="1.492919">
        <ele>1669.0</ele>
        <time>2013-03-16T12:04:05Z</time>
      </trkpt>
      <trkpt lat="42.905444" lon="1.492802">
        <ele>1668.5</ele>
        <time>2013-03-16T12:04:14Z</time>
      </trkpt>
      <trkpt lat="42.905425" lon="1.492683">
        <ele>1667.5</ele>
        <time>2013-03-16T12:04:23Z</time>
      </trkpt>
      <trkpt lat="42.905405" lon="1.492560">
        <ele>1666.1</ele>
        <time>2013-03-16T12:04:33Z</time>
      </trkpt>
      <trkpt lat="42.905384" lon="1.492432">
        <ele>1665.6</ele>
        <time>2013-03-16T12:04:43Z</time>
      </trkpt>
      <trkpt lat="42.905361" lon="1.492300">
        <ele>1664.7</ele>
        <time>2013-03-16T12:04:53Z</time>
      </trkpt>
      <trkpt lat="42.905333" lon="1.492187">
        <ele>1663.7</ele>
        <time>2013-03-16T12:05:02Z</time>
      </trkpt>
      <trkpt lat="42.905298" lon="1.492084">
        <ele>1662.3</ele>
        <time>2013-03-16T12:05:12Z</time>
      </trkpt>
      <trkpt lat="42.905264" lon="1.491967">
        <ele>1661.8</ele>
        <time>2013-03-16T12:05:23Z</time>
      </trkpt>
      <trkpt lat="42.905226" lon="1.491846">
        <ele>1661.3</ele>
        <time>2013-03-16T12:05:33Z</time>
      </trkpt>
      <trkpt lat="42.905211" lon="1.491833">
        <ele>1662.3</ele>
        <time>2013-03-16T12:09:38Z</time>
      </trkpt>
      <trkpt lat="42.905170" lon="1.491760">
        <ele>1661.8</ele>
        <time>2013-03-16T12:10:40Z</time>
      </trkpt>
      <trkpt lat="42.905126" lon="1.491650">
        <ele>1661.8</ele>
        <time>2013-03-16T12:10:52Z</time>
      </trkpt>
      <trkpt lat="42.905076" lon="1.491543">
        <ele>1661.8</ele>
        <time>2013-03-16T12:11:02Z</time>
      </trkpt>
      <trkpt lat="42.905039" lon="1.491432">
        <ele>1662.7</ele>
        <time>2013-03-16T12:11:12Z</time>
      </trkpt>
      <trkpt lat="42.905009" lon="1.491307">
        <ele>1663.2</ele>
        <time>2013-03-16T12:11:23Z</time>
      </trkpt>
      <trkpt lat="42.904984" lon="1.491182">
        <ele>1664.2</ele>
        <time>2013-03-16T12:11:34Z</time>
      </trkpt>
      <trkpt lat="42.904941" lon="1.491079">
        <ele>1665.1</ele>
        <time>2013-03-16T12:11:45Z</time>
      </trkpt>
      <trkpt lat="42.904904" lon="1.490981">
        <ele>1666.6</ele>
        <time>2013-03-16T12:12:10Z</time>
      </trkpt>
      <trkpt lat="42.904880" lon="1.490870">
        <ele>1667.5</ele>
        <time>2013-03-16T12:12:21Z</time>
      </trkpt>
      <trkpt lat="42.904864" lon="1.490747">
        <ele>1670.4</ele>
        <time>2013-03-16T12:12:32Z</time>
      </trkpt>
      <trkpt lat="42.904848" lon="1.490623">
        <ele>1671.9</ele>
        <time>2013-03-16T12:12:44Z</time>
      </trkpt>
      <trkpt lat="42.904838" lon="1.490489">
        <ele>1674.3</ele>
        <time>2013-03-16T12:12:56Z</time>
      </trkpt>
      <trkpt lat="42.904831" lon="1.490372">
        <ele>1677.2</ele>
        <time>2013-03-16T12:13:07Z</time>
      </trkpt>
      <trkpt lat="42.904822" lon="1.490246">
        <ele>1679.6</ele>
        <time>2013-03-16T12:13:20Z</time>
      </trkpt>
      <trkpt lat="42.904821" lon="1.490122">
        <ele>1682.0</ele>
        <time>2013-03-16T12:13:32Z</time>
      </trkpt>
      <trkpt lat="42.904808" lon="1.489997">
        <ele>1682.9</ele>
        <time>2013-03-16T12:13:43Z</time>
      </trkpt>
      <trkpt lat="42.904809" lon="1.489860">
        <ele>1684.8</ele>
        <time>2013-03-16T12:13:54Z</time>
      </trkpt>
      <trkpt lat="42.904797" lon="1.489721">
        <ele>1685.8</ele>
        <time>2013-03-16T12:14:29Z</time>
      </trkpt>
      <trkpt lat="42.904800" lon="1.489598">
        <ele>1688.2</ele>
        <time>2013-03-16T12:14:39Z</time>
      </trkpt>
      <trkpt lat="42.904816" lon="1.489476">
        <ele>1689.2</ele>
        <time>2013-03-16T12:14:49Z</time>
      </trkpt>
      <trkpt lat="42.904823" lon="1.489350">
        <ele>1690.6</ele>
        <time>2013-03-16T12:14:59Z</time>
      </trkpt>
      <trkpt lat="42.904836" lon="1.489231">
        <ele>1692.5</ele>
        <time>2013-03-16T12:15:09Z</time>
      </trkpt>
      <trkpt lat="42.904847" lon="1.489107">
        <ele>1693.5</ele>
        <time>2013-03-16T12:15:19Z</time>
      </trkpt>
      <trkpt lat="42.904886" lon="1.488988">
        <ele>1694.0</ele>
        <time>2013-03-16T12:15:29Z</time>
      </trkpt>
      <trkpt lat="42.904917" lon="1.488876">
        <ele>1694.5</ele>
        <time>2013-03-16T12:15:38Z</time>
      </trkpt>
      <trkpt lat="42.904989" lon="1.488787">
        <ele>1694.5</ele>
        <time>2013-03-16T12:16:07Z</time>
      </trkpt>
      <trkpt lat="42.905023" lon="1.488668">
        <ele>1695.4</ele>
        <time>2013-03-16T12:16:18Z</time>
      </trkpt>
      <trkpt lat="42.905052" lon="1.488547">
        <ele>1696.4</ele>
        <time>2013-03-16T12:16:28Z</time>
      </trkpt>
      <trkpt lat="42.905100" lon="1.488439">
        <ele>1696.9</ele>
        <time>2013-03-16T12:16:37Z</time>
      </trkpt>
      <trkpt lat="42.905156" lon="1.488332">
        <ele>1697.3</ele>
        <time>2013-03-16T12:16:46Z</time>
      </trkpt>
      <trkpt lat="42.905193" lon="1.488213">
        <ele>1697.8</ele>
        <time>2013-03-16T12:16:55Z</time>
      </trkpt>
      <trkpt lat="42.905242" lon="1.488107">
        <ele>1698.8</ele>
        <time>2013-03-16T12:17:04Z</time>
      </trkpt>
      <trkpt lat="42.905301" lon="1.488001">
        <ele>1699.3</ele>
        <time>2013-03-16T12:17:13Z</time>
      </trkpt>
      <trkpt lat="42.905341" lon="1.487883">
        <ele>1699.3</ele>
        <time>2013-03-16T12:17:25Z</time>
      </trkpt>
      <trkpt lat="42.905390" lon="1.487765">
        <ele>1699.8</ele>
        <time>2013-03-16T12:17:35Z</time>
      </trkpt>
      <trkpt lat="42.905441" lon="1.487655">
        <ele>1700.7</ele>
        <time>2013-03-16T12:17:45Z</time>
      </trkpt>
      <trkpt lat="42.905502" lon="1.487552">
        <ele>1701.2</ele>
        <time>2013-03-16T12:17:56Z</time>
      </trkpt>
      <trkpt lat="42.905567" lon="1.487443">
        <ele>1702.2</ele>
        <time>2013-03-16T12:18:07Z</time>
      </trkpt>
      <trkpt lat="42.905620" lon="1.487331">
        <ele>1703.1</ele>
        <time>2013-03-16T12:18:19Z</time>
      </trkpt>
      <trkpt lat="42.905658" lon="1.487205">
        <ele>1704.1</ele>
        <time>2013-03-16T12:18:34Z</time>
      </trkpt>
      <trkpt lat="42.905713" lon="1.487089">
        <ele>1705.0</ele>
        <time>2013-03-16T12:18:45Z</time>
      </trkpt>
      <trkpt lat="42.905788" lon="1.487000">
        <ele>1705.0</ele>
        <time>2013-03-16T12:18:57Z</time>
      </trkpt>
      <trkpt lat="42.905847" lon="1.486902">
        <ele>1705.0</ele>
        <time>2013-03-16T12:19:07Z</time>
      </trkpt>
      <trkpt lat="42.905912" lon="1.486808">
        <ele>1703.6</ele>
        <time>2013-03-16T12:20:00Z</time>
      </trkpt>
      <trkpt lat="42.905947" lon="1.486689">
        <ele>1702.6</ele>
        <time>2013-03-16T12:20:11Z</time>
      </trkpt>
      <trkpt lat="42.906004" lon="1.486590">
        <ele>1701.7</ele>
        <time>2013-03-16T12:20:22Z</time>
      </trkpt>
      <trkpt lat="42.906020" lon="1.486455">
        <ele>1700.7</ele>
        <time>2013-03-16T12:20:33Z</time>
      </trkpt>
      <trkpt lat="42.906036" lon="1.486323">
        <ele>1700.2</ele>
        <time>2013-03-16T12:20:44Z</time>
      </trkpt>
      <trkpt lat="42.906088" lon="1.486212">
        <ele>1698.8</ele>
        <time>2013-03-16T12:20:54Z</time>
      </trkpt>
      <trkpt lat="42.906092" lon="1.486087">
        <ele>1696.4</ele>
        <time>2013-03-16T12:21:06Z</time>
      </trkpt>
      <trkpt lat="42.906089" lon="1.485967">
        <ele>1695.4</ele>
        <time>2013-03-16T12:21:18Z</time>
      </trkpt>
      <trkpt lat="42.906079" lon="1.485836">
        <ele>1693.0</ele>
        <time>2013-03-16T12:21:29Z</time>
      </trkpt>
      <trkpt lat="42.906072" lon="1.485714">
        <ele>1690.6</ele>
        <time>2013-03-16T12:21:39Z</time>
      </trkpt>
      <trkpt lat="42.906061" lon="1.485579">
        <ele>1689.2</ele>
        <time>2013-03-16T12:22:07Z</time>
      </trkpt>
      <trkpt lat="42.906057" lon="1.485452">
        <ele>1686.3</ele>
        <time>2013-03-16T12:22:28Z</time>
      </trkpt>
      <trkpt lat="42.906062" lon="1.485324">
        <ele>1685.3</ele>
        <time>2013-03-16T12:22:39Z</time>
      </trkpt>
      <trkpt lat="42.906063" lon="1.485201">
        <ele>1683.9</ele>
        <time>2013-03-16T12:22:49Z</time>
      </trkpt>
      <trkpt lat="42.906069" lon="1.485072">
        <ele>1682.4</ele>
        <time>2013-03-16T12:23:00Z</time>
      </trkpt>
      <trkpt lat="42.906087" lon="1.484948">
        <ele>1680.0</ele>
        <time>2013-03-16T12:23:11Z</time>
      </trkpt>
      <trkpt lat="42.906080" lon="1.484825">
        <ele>1678.1</ele>
        <time>2013-03-16T12:23:21Z</time>
      </trkpt>
      <trkpt lat="42.906089" lon="1.484694">
        <ele>1676.2</ele>
        <time>2013-03-16T12:23:32Z</time>
      </trkpt>
      <trkpt lat="42.906078" lon="1.484560">
        <ele>1673.3</ele>
        <time>2013-03-16T12:23:43Z</time>
      </trkpt>
      <trkpt lat="42.906067" lon="1.484434">
        <ele>1671.9</ele>
        <time>2013-03-16T12:23:52Z</time>
      </trkpt>
      <trkpt lat="42.906050" lon="1.484313">
        <ele>1669.5</ele>
        <time>2013-03-16T12:24:01Z</time>
      </trkpt>
      <trkpt lat="42.906046" lon="1.484196">
        <ele>1669.0</ele>
        <time>2013-03-16T12:24:11Z</time>
      </trkpt>
      <trkpt lat="42.906043" lon="1.484070">
        <ele>1665.6</ele>
        <time>2013-03-16T12:24:22Z</time>
      </trkpt>
      <trkpt lat="42.906051" lon="1.483944">
        <ele>1663.2</ele>
        <time>2013-03-16T12:24:33Z</time>
      </trkpt>
      <trkpt lat="42.906058" lon="1.483818">
        <ele>1661.8</ele>
        <time>2013-03-16T12:24:43Z</time>
      </trkpt>
      <trkpt lat="42.906064" lon="1.483691">
        <ele>1659.8</ele>
        <time>2013-03-16T12:24:53Z</time>
      </trkpt>
      <trkpt lat="42.906060" lon="1.483580">
        <ele>1658.4</ele>
        <time>2013-03-16T12:25:03Z</time>
      </trkpt>
      <trkpt lat="42.906066" lon="1.483466">
        <ele>1657.0</ele>
        <time>2013-03-16T12:25:13Z</time>
      </trkpt>
      <trkpt lat="42.906065" lon="1.483345">
        <ele>1654.1</ele>
        <time>2013-03-16T12:25:22Z</time>
      </trkpt>
      <trkpt lat="42.906074" lon="1.483223">
        <ele>1653.6</ele>
        <time>2013-03-16T12:25:31Z</time>
      </trkpt>
      <trkpt lat="42.906095" lon="1.483101">
        <ele>1650.7</ele>
        <time>2013-03-16T12:25:40Z</time>
      </trkpt>
      <trkpt lat="42.906118" lon="1.482973">
        <ele>1647.8</ele>
        <time>2013-03-16T12:25:50Z</time>
      </trkpt>
      <trkpt lat="42.906103" lon="1.482854">
        <ele>1646.9</ele>
        <time>2013-03-16T12:25:59Z</time>
      </trkpt>
      <trkpt lat="42.906087" lon="1.482742">
        <ele>1643.5</ele>
        <time>2013-03-16T12:26:09Z</time>
      </trkpt>
      <trkpt lat="42.906086" lon="1.482624">
        <ele>1640.6</ele>
        <time>2013-03-16T12:26:20Z</time>
      </trkpt>
      <trkpt lat="42.906089" lon="1.482497">
        <ele>1639.2</ele>
        <time>2013-03-16T12:26:30Z</time>
      </trkpt>
      <trkpt lat="42.906098" lon="1.482407">
        <ele>1637.3</ele>
        <time>2013-03-16T12:27:29Z</time>
      </trkpt>
      <trkpt lat="42.906072" lon="1.482286">
        <ele>1636.3</ele>
        <time>2013-03-16T12:27:39Z</time>
      </trkpt>
      <trkpt lat="42.906041" lon="1.482177">
        <ele>1634.4</ele>
        <time>2013-03-16T12:27:50Z</time>
      </trkpt>
      <trkpt lat="42.906017" lon="1.482054">
        <ele>1632.9</ele>
        <time>2013-03-16T12:28:00Z</time>
      </trkpt>
      <trkpt lat="42.905993" lon="1.481944">
        <ele>1631.5</ele>
        <time>2013-03-16T12:28:10Z</time>
      </trkpt>
      <trkpt lat="42.905959" lon="1.481823">
        <ele>1630.1</ele>
        <time>2013-03-16T12:28:20Z</time>
      </trkpt>
      <trkpt lat="42.905917" lon="1.481707">
        <ele>1628.1</ele>
        <time>2013-03-16T12:28:30Z</time>
      </trkpt>
      <trkpt lat="42.905882" lon="1.481589">
        <ele>1627.2</ele>
        <time>2013-03-16T12:28:39Z</time>
      </trkpt>
      <trkpt lat="42.905845" lon="1.481473">
        <ele>1624.8</ele>
        <time>2013-03-16T12:28:48Z</time>
      </trkpt>
      <trkpt lat="42.905825" lon="1.481347">
        <ele>1623.8</ele>
        <time>2013-03-16T12:28:57Z</time>
      </trkpt>
      <trkpt lat="42.905811" lon="1.481218">
        <ele>1622.4</ele>
        <time>2013-03-16T12:29:06Z</time>
      </trkpt>
      <trkpt lat="42.905803" lon="1.481080">
        <ele>1621.9</ele>
        <time>2013-03-16T12:29:15Z</time>
      </trkpt>
      <trkpt lat="42.905787" lon="1.480949">
        <ele>1621.4</ele>
        <time>2013-03-16T12:29:24Z</time>
      </trkpt>
      <trkpt lat="42.905782" lon="1.480821">
        <ele>1620.9</ele>
        <time>2013-03-16T12:29:33Z</time>
      </trkpt>
      <trkpt lat="42.905771" lon="1.480690">
        <ele>1620.9</ele>
        <time>2013-03-16T12:29:42Z</time>
      </trkpt>
      <trkpt lat="42.905747" lon="1.480552">
        <ele>1620.4</ele>
        <time>2013-03-16T12:29:52Z</time>
      </trkpt>
      <trkpt lat="42.905722" lon="1.480424">
        <ele>1620.4</ele>
        <time>2013-03-16T12:30:02Z</time>
      </trkpt>
      <trkpt lat="42.905711" lon="1.480291">
        <ele>1620.9</ele>
        <time>2013-03-16T12:30:12Z</time>
      </trkpt>
      <trkpt lat="42.905703" lon="1.480150">
        <ele>1619.0</ele>
        <time>2013-03-16T12:30:22Z</time>
      </trkpt>
      <trkpt lat="42.905704" lon="1.480032">
        <ele>1618.5</ele>
        <time>2013-03-16T12:30:32Z</time>
      </trkpt>
      <trkpt lat="42.905719" lon="1.479894">
        <ele>1617.6</ele>
        <time>2013-03-16T12:30:41Z</time>
      </trkpt>
      <trkpt lat="42.905739" lon="1.479763">
        <ele>1617.6</ele>
        <time>2013-03-16T12:30:51Z</time>
      </trkpt>
      <trkpt lat="42.905752" lon="1.479629">
        <ele>1616.6</ele>
        <time>2013-03-16T12:31:00Z</time>
      </trkpt>
      <trkpt lat="42.905775" lon="1.479507">
        <ele>1616.1</ele>
        <time>2013-03-16T12:31:09Z</time>
      </trkpt>
      <trkpt lat="42.905798" lon="1.479383">
        <ele>1613.2</ele>
        <time>2013-03-16T12:31:18Z</time>
      </trkpt>
      <trkpt lat="42.905795" lon="1.479249">
        <ele>1611.3</ele>
        <time>2013-03-16T12:31:27Z</time>
      </trkpt>
      <trkpt lat="42.905798" lon="1.479118">
        <ele>1610.3</ele>
        <time>2013-03-16T12:31:36Z</time>
      </trkpt>
      <trkpt lat="42.905797" lon="1.478981">
        <ele>1610.3</ele>
        <time>2013-03-16T12:31:45Z</time>
      </trkpt>
      <trkpt lat="42.905806" lon="1.478852">
        <ele>1608.4</ele>
        <time>2013-03-16T12:31:54Z</time>
      </trkpt>
      <trkpt lat="42.905847" lon="1.478746">
        <ele>1608.9</ele>
        <time>2013-03-16T12:32:03Z</time>
      </trkpt>
      <trkpt lat="42.905834" lon="1.478612">
        <ele>1607.0</ele>
        <time>2013-03-16T12:32:20Z</time>
      </trkpt>
      <trkpt lat="42.905826" lon="1.478485">
        <ele>1605.5</ele>
        <time>2013-03-16T12:32:28Z</time>
      </trkpt>
      <trkpt lat="42.905810" lon="1.478362">
        <ele>1604.6</ele>
        <time>2013-03-16T12:32:36Z</time>
      </trkpt>
      <trkpt lat="42.905809" lon="1.478242">
        <ele>1604.1</ele>
        <time>2013-03-16T12:32:44Z</time>
      </trkpt>
      <trkpt lat="42.905794" lon="1.478117">
        <ele>1603.1</ele>
        <time>2013-03-16T12:32:53Z</time>
      </trkpt>
      <trkpt lat="42.905786" lon="1.477982">
        <ele>1603.6</ele>
        <time>2013-03-16T12:33:01Z</time>
      </trkpt>
      <trkpt lat="42.905785" lon="1.477847">
        <ele>1603.1</ele>
        <time>2013-03-16T12:33:09Z</time>
      </trkpt>
      <trkpt lat="42.905773" lon="1.477728">
        <ele>1602.7</ele>
        <time>2013-03-16T12:33:17Z</time>
      </trkpt>
      <trkpt lat="42.905775" lon="1.477607">
        <ele>1603.1</ele>
        <time>2013-03-16T12:33:25Z</time>
      </trkpt>
      <trkpt lat="42.905774" lon="1.477473">
        <ele>1605.1</ele>
        <time>2013-03-16T12:33:34Z</time>
      </trkpt>
      <trkpt lat="42.905766" lon="1.477351">
        <ele>1603.1</ele>
        <time>2013-03-16T12:33:43Z</time>
      </trkpt>
      <trkpt lat="42.905757" lon="1.477223">
        <ele>1604.1</ele>
        <time>2013-03-16T12:33:52Z</time>
      </trkpt>
      <trkpt lat="42.905753" lon="1.477091">
        <ele>1605.1</ele>
        <time>2013-03-16T12:34:02Z</time>
      </trkpt>
      <trkpt lat="42.905737" lon="1.476970">
        <ele>1606.0</ele>
        <time>2013-03-16T12:34:12Z</time>
      </trkpt>
      <trkpt lat="42.905718" lon="1.476845">
        <ele>1606.0</ele>
        <time>2013-03-16T12:34:26Z</time>
      </trkpt>
      <trkpt lat="42.905731" lon="1.476703">
        <ele>1606.0</ele>
        <time>2013-03-16T12:34:36Z</time>
      </trkpt>
      <trkpt lat="42.905744" lon="1.476572">
        <ele>1604.6</ele>
        <time>2013-03-16T12:34:46Z</time>
      </trkpt>
      <trkpt lat="42.905762" lon="1.476452">
        <ele>1603.6</ele>
        <time>2013-03-16T12:34:54Z</time>
      </trkpt>
      <trkpt lat="42.905792" lon="1.476341">
        <ele>1603.6</ele>
        <time>2013-03-16T12:35:03Z</time>
      </trkpt>
      <trkpt lat="42.905800" lon="1.476216">
        <ele>1604.6</ele>
        <time>2013-03-16T12:35:13Z</time>
      </trkpt>
      <trkpt lat="42.905814" lon="1.476085">
        <ele>1605.5</ele>
        <time>2013-03-16T12:35:23Z</time>
      </trkpt>
      <trkpt lat="42.905847" lon="1.475962">
        <ele>1605.5</ele>
        <time>2013-03-16T12:35:34Z</time>
      </trkpt>
      <trkpt lat="42.905863" lon="1.475836">
        <ele>1605.5</ele>
        <time>2013-03-16T12:35:44Z</time>
      </trkpt>
      <trkpt lat="42.905860" lon="1.475710">
        <ele>1606.5</ele>
        <time>2013-03-16T12:35:53Z</time>
      </trkpt>
      <trkpt lat="42.905853" lon="1.475587">
        <ele>1607.5</ele>
        <time>2013-03-16T12:36:02Z</time>
      </trkpt>
      <trkpt lat="42.905830" lon="1.475464">
        <ele>1607.9</ele>
        <time>2013-03-16T12:36:12Z</time>
      </trkpt>
      <trkpt lat="42.905825" lon="1.475332">
        <ele>1609.4</ele>
        <time>2013-03-16T12:36:23Z</time>
      </trkpt>
      <trkpt lat="42.905813" lon="1.475212">
        <ele>1610.3</ele>
        <time>2013-03-16T12:36:34Z</time>
      </trkpt>
      <trkpt lat="42.905845" lon="1.475088">
        <ele>1608.9</ele>
        <time>2013-03-16T12:36:43Z</time>
      </trkpt>
      <trkpt lat="42.905869" lon="1.474970">
        <ele>1609.4</ele>
        <time>2013-03-16T12:36:52Z</time>
      </trkpt>
      <trkpt lat="42.905877" lon="1.474840">
        <ele>1609.4</ele>
        <time>2013-03-16T12:37:01Z</time>
      </trkpt>
      <trkpt lat="42.905886" lon="1.474722">
        <ele>1610.8</ele>
        <time>2013-03-16T12:37:12Z</time>
      </trkpt>
      <trkpt lat="42.905868" lon="1.474662">
        <ele>1612.8</ele>
        <time>2013-03-16T12:38:26Z</time>
      </trkpt>
      <trkpt lat="42.905893" lon="1.474533">
        <ele>1611.8</ele>
        <time>2013-03-16T12:38:38Z</time>
      </trkpt>
      <trkpt lat="42.905883" lon="1.474393">
        <ele>1612.3</ele>
        <time>2013-03-16T12:38:50Z</time>
      </trkpt>
      <trkpt lat="42.905840" lon="1.474315">
        <ele>1609.9</ele>
        <time>2013-03-16T12:39:31Z</time>
      </trkpt>
      <trkpt lat="42.905944" lon="1.474304">
        <ele>1612.8</ele>
        <time>2013-03-16T12:39:44Z</time>
      </trkpt>
      <trkpt lat="42.905954" lon="1.474184">
        <ele>1610.3</ele>
        <time>2013-03-16T12:39:57Z</time>
      </trkpt>
      <trkpt lat="42.905963" lon="1.474048">
        <ele>1611.3</ele>
        <time>2013-03-16T12:40:09Z</time>
      </trkpt>
      <trkpt lat="42.905971" lon="1.473918">
        <ele>1611.3</ele>
        <time>2013-03-16T12:40:20Z</time>
      </trkpt>
      <trkpt lat="42.905984" lon="1.473795">
        <ele>1612.3</ele>
        <time>2013-03-16T12:40:31Z</time>
      </trkpt>
      <trkpt lat="42.906013" lon="1.473676">
        <ele>1613.2</ele>
        <time>2013-03-16T12:40:41Z</time>
      </trkpt>
      <trkpt lat="42.906053" lon="1.473566">
        <ele>1614.2</ele>
        <time>2013-03-16T12:40:51Z</time>
      </trkpt>
      <trkpt lat="42.906075" lon="1.473437">
        <ele>1614.7</ele>
        <time>2013-03-16T12:41:01Z</time>
      </trkpt>
      <trkpt lat="42.906085" lon="1.473298">
        <ele>1616.1</ele>
        <time>2013-03-16T12:41:13Z</time>
      </trkpt>
      <trkpt lat="42.906102" lon="1.473172">
        <ele>1616.6</ele>
        <time>2013-03-16T12:41:24Z</time>
      </trkpt>
      <trkpt lat="42.906128" lon="1.473051">
        <ele>1617.1</ele>
        <time>2013-03-16T12:41:36Z</time>
      </trkpt>
      <trkpt lat="42.906168" lon="1.472928">
        <ele>1618.0</ele>
        <time>2013-03-16T12:41:49Z</time>
      </trkpt>
      <trkpt lat="42.906197" lon="1.472800">
        <ele>1619.0</ele>
        <time>2013-03-16T12:42:02Z</time>
      </trkpt>
      <trkpt lat="42.906232" lon="1.472679">
        <ele>1621.4</ele>
        <time>2013-03-16T12:42:29Z</time>
      </trkpt>
      <trkpt lat="42.906249" lon="1.472555">
        <ele>1623.8</ele>
        <time>2013-03-16T12:42:43Z</time>
      </trkpt>
      <trkpt lat="42.906233" lon="1.472417">
        <ele>1625.2</ele>
        <time>2013-03-16T12:43:05Z</time>
      </trkpt>
      <trkpt lat="42.906264" lon="1.472304">
        <ele>1628.1</ele>
        <time>2013-03-16T12:43:18Z</time>
      </trkpt>
      <trkpt lat="42.906293" lon="1.472189">
        <ele>1630.1</ele>
        <time>2013-03-16T12:43:30Z</time>
      </trkpt>
      <trkpt lat="42.906339" lon="1.472094">
        <ele>1632.5</ele>
        <time>2013-03-16T12:43:43Z</time>
      </trkpt>
      <trkpt lat="42.906366" lon="1.471972">
        <ele>1634.4</ele>
        <time>2013-03-16T12:43:56Z</time>
      </trkpt>
      <trkpt lat="42.906398" lon="1.471854">
        <ele>1636.3</ele>
        <time>2013-03-16T12:44:08Z</time>
      </trkpt>
      <trkpt lat="42.906433" lon="1.471725">
        <ele>1640.2</ele>
        <time>2013-03-16T12:44:21Z</time>
      </trkpt>
      <trkpt lat="42.906503" lon="1.471646">
        <ele>1643.0</ele>
        <time>2013-03-16T12:44:34Z</time>
      </trkpt>
      <trkpt lat="42.906498" lon="1.471502">
        <ele>1643.0</ele>
        <time>2013-03-16T12:44:47Z</time>
      </trkpt>
      <trkpt lat="42.906526" lon="1.471399">
        <ele>1649.8</ele>
        <time>2013-03-16T12:44:58Z</time>
      </trkpt>
      <trkpt lat="42.906586" lon="1.471285">
        <ele>1652.2</ele>
        <time>2013-03-16T12:45:10Z</time>
      </trkpt>
      <trkpt lat="42.906628" lon="1.471178">
        <ele>1656.0</ele>
        <time>2013-03-16T12:45:22Z</time>
      </trkpt>
      <trkpt lat="42.906683" lon="1.471084">
        <ele>1658.4</ele>
        <time>2013-03-16T12:45:35Z</time>
      </trkpt>
      <trkpt lat="42.906762" lon="1.471018">
        <ele>1659.4</ele>
        <time>2013-03-16T12:45:48Z</time>
      </trkpt>
      <trkpt lat="42.906830" lon="1.470928">
        <ele>1660.8</ele>
        <time>2013-03-16T12:46:02Z</time>
      </trkpt>
      <trkpt lat="42.906902" lon="1.470845">
        <ele>1663.2</ele>
        <time>2013-03-16T12:46:16Z</time>
      </trkpt>
      <trkpt lat="42.906981" lon="1.470791">
        <ele>1663.7</ele>
        <time>2013-03-16T12:46:29Z</time>
      </trkpt>
      <trkpt lat="42.907071" lon="1.470732">
        <ele>1665.6</ele>
        <time>2013-03-16T12:46:40Z</time>
      </trkpt>
      <trkpt lat="42.907154" lon="1.470655">
        <ele>1667.1</ele>
        <time>2013-03-16T12:46:51Z</time>
      </trkpt>
      <trkpt lat="42.907239" lon="1.470587">
        <ele>1669.0</ele>
        <time>2013-03-16T12:47:02Z</time>
      </trkpt>
      <trkpt lat="42.907311" lon="1.470533">
        <ele>1669.0</ele>
        <time>2013-03-16T12:47:28Z</time>
      </trkpt>
      <trkpt lat="42.907392" lon="1.470457">
        <ele>1670.9</ele>
        <time>2013-03-16T12:47:38Z</time>
      </trkpt>
      <trkpt lat="42.907468" lon="1.470387">
        <ele>1671.4</ele>
        <time>2013-03-16T12:47:48Z</time>
      </trkpt>
      <trkpt lat="42.907547" lon="1.470320">
        <ele>1671.9</ele>
        <time>2013-03-16T12:47:58Z</time>
      </trkpt>
      <trkpt lat="42.907627" lon="1.470258">
        <ele>1673.3</ele>
        <time>2013-03-16T12:48:08Z</time>
      </trkpt>
      <trkpt lat="42.907718" lon="1.470207">
        <ele>1674.8</ele>
        <time>2013-03-16T12:48:19Z</time>
      </trkpt>
      <trkpt lat="42.907805" lon="1.470138">
        <ele>1675.2</ele>
        <time>2013-03-16T12:49:17Z</time>
      </trkpt>
      <trkpt lat="42.907884" lon="1.470090">
        <ele>1677.2</ele>
        <time>2013-03-16T12:49:28Z</time>
      </trkpt>
      <trkpt lat="42.907966" lon="1.470024">
        <ele>1678.1</ele>
        <time>2013-03-16T12:49:39Z</time>
      </trkpt>
      <trkpt lat="42.908048" lon="1.469962">
        <ele>1679.1</ele>
        <time>2013-03-16T12:49:49Z</time>
      </trkpt>
      <trkpt lat="42.908132" lon="1.469911">
        <ele>1679.6</ele>
        <time>2013-03-16T12:49:59Z</time>
      </trkpt>
      <trkpt lat="42.908208" lon="1.469840">
        <ele>1680.5</ele>
        <time>2013-03-16T12:50:09Z</time>
      </trkpt>
      <trkpt lat="42.908291" lon="1.469774">
        <ele>1680.5</ele>
        <time>2013-03-16T12:50:19Z</time>
      </trkpt>
      <trkpt lat="42.908379" lon="1.469728">
        <ele>1682.4</ele>
        <time>2013-03-16T12:50:31Z</time>
      </trkpt>
      <trkpt lat="42.908386" lon="1.469674">
        <ele>1682.0</ele>
        <time>2013-03-16T12:52:17Z</time>
      </trkpt>
      <trkpt lat="42.908398" lon="1.469666">
        <ele>1681.0</ele>
        <time>2013-03-16T12:53:02Z</time>
      </trkpt>
      <trkpt lat="42.908398" lon="1.469639">
        <ele>1681.5</ele>
        <time>2013-03-16T12:53:45Z</time>
      </trkpt>
      <trkpt lat="42.908393" lon="1.469650">
        <ele>1680.0</ele>
        <time>2013-03-16T12:54:10Z</time>
      </trkpt>
      <trkpt lat="42.908359" lon="1.469609">
        <ele>1679.6</ele>
        <time>2013-03-16T12:54:37Z</time>
      </trkpt>
      <trkpt lat="42.908299" lon="1.469560">
        <ele>1674.8</ele>
        <time>2013-03-16T12:56:54Z</time>
      </trkpt>
      <trkpt lat="42.908230" lon="1.469486">
        <ele>1672.8</ele>
        <time>2013-03-16T12:57:04Z</time>
      </trkpt>
      <trkpt lat="42.908168" lon="1.469403">
        <ele>1671.9</ele>
        <time>2013-03-16T12:57:13Z</time>
      </trkpt>
      <trkpt lat="42.908106" lon="1.469296">
        <ele>1669.5</ele>
        <time>2013-03-16T12:57:22Z</time>
      </trkpt>
      <trkpt lat="42.908035" lon="1.469215">
        <ele>1667.5</ele>
        <time>2013-03-16T12:57:30Z</time>
      </trkpt>
      <trkpt lat="42.907980" lon="1.469123">
        <ele>1665.1</ele>
        <time>2013-03-16T12:57:38Z</time>
      </trkpt>
      <trkpt lat="42.907925" lon="1.469006">
        <ele>1663.7</ele>
        <time>2013-03-16T12:57:47Z</time>
      </trkpt>
      <trkpt lat="42.907876" lon="1.468897">
        <ele>1660.3</ele>
        <time>2013-03-16T12:57:55Z</time>
      </trkpt>
      <trkpt lat="42.907817" lon="1.468800">
        <ele>1659.4</ele>
        <time>2013-03-16T12:58:03Z</time>
      </trkpt>
      <trkpt lat="42.907763" lon="1.468699">
        <ele>1657.0</ele>
        <time>2013-03-16T12:58:11Z</time>
      </trkpt>
      <trkpt lat="42.907697" lon="1.468596">
        <ele>1655.5</ele>
        <time>2013-03-16T12:58:19Z</time>
      </trkpt>
      <trkpt lat="42.907644" lon="1.468505">
        <ele>1652.6</ele>
        <time>2013-03-16T12:58:26Z</time>
      </trkpt>
      <trkpt lat="42.907581" lon="1.468419">
        <ele>1650.2</ele>
        <time>2013-03-16T12:58:33Z</time>
      </trkpt>
      <trkpt lat="42.907517" lon="1.468334">
        <ele>1649.8</ele>
        <time>2013-03-16T12:58:40Z</time>
      </trkpt>
      <trkpt lat="42.907462" lon="1.468226">
        <ele>1646.4</ele>
        <time>2013-03-16T12:58:48Z</time>
      </trkpt>
      <trkpt lat="42.907387" lon="1.468131">
        <ele>1644.0</ele>
        <time>2013-03-16T12:58:56Z</time>
      </trkpt>
      <trkpt lat="42.907337" lon="1.468030">
        <ele>1643.5</ele>
        <time>2013-03-16T12:59:04Z</time>
      </trkpt>
      <trkpt lat="42.907286" lon="1.467924">
        <ele>1641.1</ele>
        <time>2013-03-16T12:59:13Z</time>
      </trkpt>
      <trkpt lat="42.907243" lon="1.467801">
        <ele>1640.2</ele>
        <time>2013-03-16T12:59:21Z</time>
      </trkpt>
      <trkpt lat="42.907214" lon="1.467680">
        <ele>1638.2</ele>
        <time>2013-03-16T12:59:29Z</time>
      </trkpt>
      <trkpt lat="42.907156" lon="1.467589">
        <ele>1635.3</ele>
        <time>2013-03-16T12:59:37Z</time>
      </trkpt>
      <trkpt lat="42.907096" lon="1.467483">
        <ele>1635.3</ele>
        <time>2013-03-16T12:59:46Z</time>
      </trkpt>
      <trkpt lat="42.907039" lon="1.467393">
        <ele>1634.4</ele>
        <time>2013-03-16T13:00:38Z</time>
      </trkpt>
      <trkpt lat="42.906991" lon="1.467285">
        <ele>1631.5</ele>
        <time>2013-03-16T13:00:48Z</time>
      </trkpt>
      <trkpt lat="42.906926" lon="1.467226">
        <ele>1629.1</ele>
        <time>2013-03-16T13:00:58Z</time>
      </trkpt>
      <trkpt lat="42.906844" lon="1.467170">
        <ele>1626.2</ele>
        <time>2013-03-16T13:01:06Z</time>
      </trkpt>
      <trkpt lat="42.906775" lon="1.467083">
        <ele>1625.2</ele>
        <time>2013-03-16T13:01:14Z</time>
      </trkpt>
      <trkpt lat="42.906712" lon="1.466981">
        <ele>1623.3</ele>
        <time>2013-03-16T13:01:22Z</time>
      </trkpt>
      <trkpt lat="42.906653" lon="1.466879">
        <ele>1623.3</ele>
        <time>2013-03-16T13:01:30Z</time>
      </trkpt>
      <trkpt lat="42.906607" lon="1.466750">
        <ele>1621.4</ele>
        <time>2013-03-16T13:01:39Z</time>
      </trkpt>
      <trkpt lat="42.906563" lon="1.466636">
        <ele>1618.0</ele>
        <time>2013-03-16T13:01:48Z</time>
      </trkpt>
      <trkpt lat="42.906513" lon="1.466543">
        <ele>1617.1</ele>
        <time>2013-03-16T13:01:57Z</time>
      </trkpt>
      <trkpt lat="42.906473" lon="1.466433">
        <ele>1618.0</ele>
        <time>2013-03-16T13:02:06Z</time>
      </trkpt>
      <trkpt lat="42.906446" lon="1.466320">
        <ele>1614.2</ele>
        <time>2013-03-16T13:02:15Z</time>
      </trkpt>
      <trkpt lat="42.906398" lon="1.466222">
        <ele>1613.7</ele>
        <time>2013-03-16T13:02:23Z</time>
      </trkpt>
      <trkpt lat="42.906374" lon="1.466094">
        <ele>1612.3</ele>
        <time>2013-03-16T13:02:31Z</time>
      </trkpt>
      <trkpt lat="42.906339" lon="1.465969">
        <ele>1609.9</ele>
        <time>2013-03-16T13:02:40Z</time>
      </trkpt>
      <trkpt lat="42.906290" lon="1.465867">
        <ele>1608.9</ele>
        <time>2013-03-16T13:02:48Z</time>
      </trkpt>
      <trkpt lat="42.906254" lon="1.465749">
        <ele>1608.4</ele>
        <time>2013-03-16T13:02:56Z</time>
      </trkpt>
      <trkpt lat="42.906230" lon="1.465632">
        <ele>1607.0</ele>
        <time>2013-03-16T13:03:04Z</time>
      </trkpt>
      <trkpt lat="42.906204" lon="1.465512">
        <ele>1605.5</ele>
        <time>2013-03-16T13:03:12Z</time>
      </trkpt>
      <trkpt lat="42.906178" lon="1.465382">
        <ele>1604.1</ele>
        <time>2013-03-16T13:03:20Z</time>
      </trkpt>
      <trkpt lat="42.906162" lon="1.465256">
        <ele>1602.2</ele>
        <time>2013-03-16T13:03:27Z</time>
      </trkpt>
      <trkpt lat="42.906132" lon="1.465125">
        <ele>1599.8</ele>
        <time>2013-03-16T13:03:35Z</time>
      </trkpt>
      <trkpt lat="42.906119" lon="1.464997">
        <ele>1599.3</ele>
        <time>2013-03-16T13:03:43Z</time>
      </trkpt>
      <trkpt lat="42.906100" lon="1.464865">
        <ele>1597.4</ele>
        <time>2013-03-16T13:03:52Z</time>
      </trkpt>
      <trkpt lat="42.906076" lon="1.464741">
        <ele>1595.0</ele>
        <time>2013-03-16T13:04:00Z</time>
      </trkpt>
      <trkpt lat="42.906061" lon="1.464617">
        <ele>1593.0</ele>
        <time>2013-03-16T13:04:08Z</time>
      </trkpt>
      <trkpt lat="42.906054" lon="1.464485">
        <ele>1591.6</ele>
        <time>2013-03-16T13:04:16Z</time>
      </trkpt>
      <trkpt lat="42.906020" lon="1.464366">
        <ele>1589.7</ele>
        <time>2013-03-16T13:04:25Z</time>
      </trkpt>
      <trkpt lat="42.905978" lon="1.464256">
        <ele>1588.7</ele>
        <time>2013-03-16T13:04:33Z</time>
      </trkpt>
      <trkpt lat="42.905949" lon="1.464133">
        <ele>1586.3</ele>
        <time>2013-03-16T13:04:41Z</time>
      </trkpt>
      <trkpt lat="42.905921" lon="1.464006">
        <ele>1586.3</ele>
        <time>2013-03-16T13:04:49Z</time>
      </trkpt>
      <trkpt lat="42.905901" lon="1.463865">
        <ele>1584.9</ele>
        <time>2013-03-16T13:04:58Z</time>
      </trkpt>
      <trkpt lat="42.905883" lon="1.463736">
        <ele>1583.4</ele>
        <time>2013-03-16T13:05:06Z</time>
      </trkpt>
      <trkpt lat="42.905853" lon="1.463624">
        <ele>1581.5</ele>
        <time>2013-03-16T13:05:14Z</time>
      </trkpt>
      <trkpt lat="42.905827" lon="1.463507">
        <ele>1580.1</ele>
        <time>2013-03-16T13:05:22Z</time>
      </trkpt>
      <trkpt lat="42.905802" lon="1.463391">
        <ele>1579.1</ele>
        <time>2013-03-16T13:05:30Z</time>
      </trkpt>
      <trkpt lat="42.905793" lon="1.463263">
        <ele>1578.6</ele>
        <time>2013-03-16T13:05:38Z</time>
      </trkpt>
      <trkpt lat="42.905783" lon="1.463141">
        <ele>1578.1</ele>
        <time>2013-03-16T13:05:46Z</time>
      </trkpt>
      <trkpt lat="42.905775" lon="1.463015">
        <ele>1577.2</ele>
        <time>2013-03-16T13:05:54Z</time>
      </trkpt>
      <trkpt lat="42.905764" lon="1.462892">
        <ele>1575.3</ele>
        <time>2013-03-16T13:06:02Z</time>
      </trkpt>
      <trkpt lat="42.905745" lon="1.462766">
        <ele>1573.3</ele>
        <time>2013-03-16T13:06:11Z</time>
      </trkpt>
      <trkpt lat="42.905749" lon="1.462643">
        <ele>1572.4</ele>
        <time>2013-03-16T13:06:19Z</time>
      </trkpt>
      <trkpt lat="42.905738" lon="1.462524">
        <ele>1569.5</ele>
        <time>2013-03-16T13:06:28Z</time>
      </trkpt>
      <trkpt lat="42.905718" lon="1.462395">
        <ele>1567.1</ele>
        <time>2013-03-16T13:06:37Z</time>
      </trkpt>
      <trkpt lat="42.905682" lon="1.462283">
        <ele>1564.7</ele>
        <time>2013-03-16T13:06:45Z</time>
      </trkpt>
      <trkpt lat="42.905678" lon="1.462158">
        <ele>1565.6</ele>
        <time>2013-03-16T13:06:53Z</time>
      </trkpt>
      <trkpt lat="42.905655" lon="1.462034">
        <ele>1561.3</ele>
        <time>2013-03-16T13:07:02Z</time>
      </trkpt>
      <trkpt lat="42.905639" lon="1.461891">
        <ele>1560.4</ele>
        <time>2013-03-16T13:07:12Z</time>
      </trkpt>
      <trkpt lat="42.905651" lon="1.461764">
        <ele>1557.9</ele>
        <time>2013-03-16T13:07:21Z</time>
      </trkpt>
      <trkpt lat="42.905642" lon="1.461629">
        <ele>1554.6</ele>
        <time>2013-03-16T13:07:30Z</time>
      </trkpt>
      <trkpt lat="42.905627" lon="1.461508">
        <ele>1552.7</ele>
        <time>2013-03-16T13:07:38Z</time>
      </trkpt>
      <trkpt lat="42.905608" lon="1.461373">
        <ele>1552.2</ele>
        <time>2013-03-16T13:07:47Z</time>
      </trkpt>
      <trkpt lat="42.905597" lon="1.461233">
        <ele>1550.7</ele>
        <time>2013-03-16T13:07:56Z</time>
      </trkpt>
      <trkpt lat="42.905592" lon="1.461102">
        <ele>1549.8</ele>
        <time>2013-03-16T13:08:05Z</time>
      </trkpt>
      <trkpt lat="42.905587" lon="1.460965">
        <ele>1548.8</ele>
        <time>2013-03-16T13:08:14Z</time>
      </trkpt>
      <trkpt lat="42.905588" lon="1.460842">
        <ele>1546.9</ele>
        <time>2013-03-16T13:08:22Z</time>
      </trkpt>
      <trkpt lat="42.905590" lon="1.460706">
        <ele>1546.4</ele>
        <time>2013-03-16T13:08:31Z</time>
      </trkpt>
      <trkpt lat="42.905595" lon="1.460566">
        <ele>1545.9</ele>
        <time>2013-03-16T13:08:40Z</time>
      </trkpt>
      <trkpt lat="42.905602" lon="1.460430">
        <ele>1545.0</ele>
        <time>2013-03-16T13:08:49Z</time>
      </trkpt>
      <trkpt lat="42.905591" lon="1.460295">
        <ele>1543.5</ele>
        <time>2013-03-16T13:08:58Z</time>
      </trkpt>
      <trkpt lat="42.905596" lon="1.460159">
        <ele>1543.1</ele>
        <time>2013-03-16T13:09:07Z</time>
      </trkpt>
      <trkpt lat="42.905603" lon="1.460023">
        <ele>1542.6</ele>
        <time>2013-03-16T13:09:16Z</time>
      </trkpt>
      <trkpt lat="42.905623" lon="1.459942">
        <ele>1543.1</ele>
        <time>2013-03-16T13:09:37Z</time>
      </trkpt>
      <trkpt lat="42.905635" lon="1.459866">
        <ele>1543.1</ele>
        <time>2013-03-16T13:10:46Z</time>
      </trkpt>
      <trkpt lat="42.905637" lon="1.459726">
        <ele>1543.1</ele>
        <time>2013-03-16T13:10:54Z</time>
      </trkpt>
      <trkpt lat="42.905637" lon="1.459598">
        <ele>1544.0</ele>
        <time>2013-03-16T13:11:02Z</time>
      </trkpt>
      <trkpt lat="42.905638" lon="1.459472">
        <ele>1544.0</ele>
        <time>2013-03-16T13:11:10Z</time>
      </trkpt>
      <trkpt lat="42.905660" lon="1.459346">
        <ele>1544.0</ele>
        <time>2013-03-16T13:11:18Z</time>
      </trkpt>
      <trkpt lat="42.905670" lon="1.459221">
        <ele>1544.5</ele>
        <time>2013-03-16T13:11:26Z</time>
      </trkpt>
      <trkpt lat="42.905690" lon="1.459099">
        <ele>1542.6</ele>
        <time>2013-03-16T13:11:35Z</time>
      </trkpt>
      <trkpt lat="42.905688" lon="1.458956">
        <ele>1542.1</ele>
        <time>2013-03-16T13:11:45Z</time>
      </trkpt>
      <trkpt lat="42.905692" lon="1.458817">
        <ele>1541.6</ele>
        <time>2013-03-16T13:11:53Z</time>
      </trkpt>
      <trkpt lat="42.905682" lon="1.458686">
        <ele>1541.1</ele>
        <time>2013-03-16T13:12:02Z</time>
      </trkpt>
      <trkpt lat="42.905692" lon="1.458559">
        <ele>1540.2</ele>
        <time>2013-03-16T13:12:11Z</time>
      </trkpt>
      <trkpt lat="42.905669" lon="1.458431">
        <ele>1541.1</ele>
        <time>2013-03-16T13:12:20Z</time>
      </trkpt>
      <trkpt lat="42.905663" lon="1.458300">
        <ele>1542.1</ele>
        <time>2013-03-16T13:12:28Z</time>
      </trkpt>
      <trkpt lat="42.905657" lon="1.458170">
        <ele>1544.5</ele>
        <time>2013-03-16T13:12:37Z</time>
      </trkpt>
      <trkpt lat="42.905659" lon="1.458032">
        <ele>1547.4</ele>
        <time>2013-03-16T13:12:46Z</time>
      </trkpt>
      <trkpt lat="42.905655" lon="1.457899">
        <ele>1546.9</ele>
        <time>2013-03-16T13:12:54Z</time>
      </trkpt>
      <trkpt lat="42.905640" lon="1.457763">
        <ele>1547.9</ele>
        <time>2013-03-16T13:13:03Z</time>
      </trkpt>
      <trkpt lat="42.905606" lon="1.457642">
        <ele>1546.9</ele>
        <time>2013-03-16T13:13:12Z</time>
      </trkpt>
      <trkpt lat="42.905626" lon="1.457565">
        <ele>1548.8</ele>
        <time>2013-03-16T13:13:46Z</time>
      </trkpt>
      <trkpt lat="42.905638" lon="1.457427">
        <ele>1547.9</ele>
        <time>2013-03-16T13:13:56Z</time>
      </trkpt>
      <trkpt lat="42.905628" lon="1.457289">
        <ele>1547.4</ele>
        <time>2013-03-16T13:14:06Z</time>
      </trkpt>
      <trkpt lat="42.905611" lon="1.457182">
        <ele>1545.5</ele>
        <time>2013-03-16T13:14:33Z</time>
      </trkpt>
      <trkpt lat="42.905577" lon="1.457053">
        <ele>1545.5</ele>
        <time>2013-03-16T13:14:43Z</time>
      </trkpt>
      <trkpt lat="42.905542" lon="1.456938">
        <ele>1544.0</ele>
        <time>2013-03-16T13:14:52Z</time>
      </trkpt>
      <trkpt lat="42.905506" lon="1.456827">
        <ele>1541.6</ele>
        <time>2013-03-16T13:15:01Z</time>
      </trkpt>
      <trkpt lat="42.905464" lon="1.456713">
        <ele>1539.7</ele>
        <time>2013-03-16T13:15:12Z</time>
      </trkpt>
      <trkpt lat="42.905423" lon="1.456597">
        <ele>1537.3</ele>
        <time>2013-03-16T13:15:22Z</time>
      </trkpt>
      <trkpt lat="42.905366" lon="1.456489">
        <ele>1533.9</ele>
        <time>2013-03-16T13:15:32Z</time>
      </trkpt>
      <trkpt lat="42.905308" lon="1.456387">
        <ele>1531.0</ele>
        <time>2013-03-16T13:15:42Z</time>
      </trkpt>
      <trkpt lat="42.905262" lon="1.456273">
        <ele>1527.7</ele>
        <time>2013-03-16T13:15:52Z</time>
      </trkpt>
      <trkpt lat="42.905180" lon="1.456209">
        <ele>1523.3</ele>
        <time>2013-03-16T13:16:03Z</time>
      </trkpt>
      <trkpt lat="42.905103" lon="1.456121">
        <ele>1519.0</ele>
        <time>2013-03-16T13:16:13Z</time>
      </trkpt>
      <trkpt lat="42.905040" lon="1.456036">
        <ele>1515.2</ele>
        <time>2013-03-16T13:16:22Z</time>
      </trkpt>
      <trkpt lat="42.904970" lon="1.456067">
        <ele>1512.8</ele>
        <time>2013-03-16T13:16:38Z</time>
      </trkpt>
      <trkpt lat="42.904877" lon="1.456004">
        <ele>1508.4</ele>
        <time>2013-03-16T13:17:00Z</time>
      </trkpt>
      <trkpt lat="42.904809" lon="1.455930">
        <ele>1505.1</ele>
        <time>2013-03-16T13:17:08Z</time>
      </trkpt>
      <trkpt lat="42.904738" lon="1.455866">
        <ele>1501.2</ele>
        <time>2013-03-16T13:17:15Z</time>
      </trkpt>
      <trkpt lat="42.904664" lon="1.455788">
        <ele>1496.4</ele>
        <time>2013-03-16T13:17:23Z</time>
      </trkpt>
      <trkpt lat="42.904608" lon="1.455724">
        <ele>1492.6</ele>
        <time>2013-03-16T13:17:52Z</time>
      </trkpt>
      <trkpt lat="42.904579" lon="1.455604">
        <ele>1487.8</ele>
        <time>2013-03-16T13:19:38Z</time>
      </trkpt>
      <trkpt lat="42.904501" lon="1.455572">
        <ele>1484.4</ele>
        <time>2013-03-16T13:19:53Z</time>
      </trkpt>
      <trkpt lat="42.904438" lon="1.455473">
        <ele>1480.1</ele>
        <time>2013-03-16T13:20:09Z</time>
      </trkpt>
      <trkpt lat="42.904388" lon="1.455408">
        <ele>1477.2</ele>
        <time>2013-03-16T13:20:43Z</time>
      </trkpt>
      <trkpt lat="42.904323" lon="1.455371">
        <ele>1472.4</ele>
        <time>2013-03-16T13:21:07Z</time>
      </trkpt>
      <trkpt lat="42.904255" lon="1.455309">
        <ele>1468.1</ele>
        <time>2013-03-16T13:21:22Z</time>
      </trkpt>
      <trkpt lat="42.904188" lon="1.455237">
        <ele>1462.8</ele>
        <time>2013-03-16T13:21:39Z</time>
      </trkpt>
      <trkpt lat="42.904118" lon="1.455198">
        <ele>1458.9</ele>
        <time>2013-03-16T13:21:55Z</time>
      </trkpt>
      <trkpt lat="42.904045" lon="1.455138">
        <ele>1454.6</ele>
        <time>2013-03-16T13:22:17Z</time>
      </trkpt>
      <trkpt lat="42.903956" lon="1.455105">
        <ele>1449.8</ele>
        <time>2013-03-16T13:22:32Z</time>
      </trkpt>
      <trkpt lat="42.903872" lon="1.455073">
        <ele>1446.4</ele>
        <time>2013-03-16T13:22:45Z</time>
      </trkpt>
      <trkpt lat="42.903776" lon="1.455034">
        <ele>1441.6</ele>
        <time>2013-03-16T13:23:06Z</time>
      </trkpt>
      <trkpt lat="42.903699" lon="1.454997">
        <ele>1437.3</ele>
        <time>2013-03-16T13:23:26Z</time>
      </trkpt>
      <trkpt lat="42.903628" lon="1.454976">
        <ele>1433.0</ele>
        <time>2013-03-16T13:23:52Z</time>
      </trkpt>
      <trkpt lat="42.903543" lon="1.454944">
        <ele>1428.2</ele>
        <time>2013-03-16T13:24:01Z</time>
      </trkpt>
      <trkpt lat="42.903481" lon="1.454876">
        <ele>1424.3</ele>
        <time>2013-03-16T13:24:21Z</time>
      </trkpt>
      <trkpt lat="42.903405" lon="1.454812">
        <ele>1419.5</ele>
        <time>2013-03-16T13:24:32Z</time>
      </trkpt>
      <trkpt lat="42.903325" lon="1.454752">
        <ele>1414.2</ele>
        <time>2013-03-16T13:24:44Z</time>
      </trkpt>
      <trkpt lat="42.903248" lon="1.454674">
        <ele>1410.4</ele>
        <time>2013-03-16T13:24:56Z</time>
      </trkpt>
      <trkpt lat="42.903160" lon="1.454625">
        <ele>1405.6</ele>
        <time>2013-03-16T13:25:11Z</time>
      </trkpt>
      <trkpt lat="42.903073" lon="1.454593">
        <ele>1402.2</ele>
        <time>2013-03-16T13:25:22Z</time>
      </trkpt>
      <trkpt lat="42.903004" lon="1.454503">
        <ele>1396.4</ele>
        <time>2013-03-16T13:25:34Z</time>
      </trkpt>
      <trkpt lat="42.902924" lon="1.454537">
        <ele>1394.5</ele>
        <time>2013-03-16T13:27:06Z</time>
      </trkpt>
      <trkpt lat="42.902874" lon="1.454444">
        <ele>1390.2</ele>
        <time>2013-03-16T13:27:17Z</time>
      </trkpt>
      <trkpt lat="42.902841" lon="1.454422">
        <ele>1391.2</ele>
        <time>2013-03-16T13:28:08Z</time>
      </trkpt>
      <trkpt lat="42.902760" lon="1.454356">
        <ele>1386.4</ele>
        <time>2013-03-16T13:28:15Z</time>
      </trkpt>
      <trkpt lat="42.902694" lon="1.454287">
        <ele>1383.0</ele>
        <time>2013-03-16T13:28:22Z</time>
      </trkpt>
      <trkpt lat="42.902608" lon="1.454234">
        <ele>1379.6</ele>
        <time>2013-03-16T13:28:29Z</time>
      </trkpt>
      <trkpt lat="42.902523" lon="1.454190">
        <ele>1375.8</ele>
        <time>2013-03-16T13:28:36Z</time>
      </trkpt>
      <trkpt lat="42.902434" lon="1.454174">
        <ele>1371.5</ele>
        <time>2013-03-16T13:28:44Z</time>
      </trkpt>
      <trkpt lat="42.902344" lon="1.454131">
        <ele>1367.1</ele>
        <time>2013-03-16T13:28:53Z</time>
      </trkpt>
      <trkpt lat="42.902261" lon="1.454104">
        <ele>1363.8</ele>
        <time>2013-03-16T13:29:02Z</time>
      </trkpt>
      <trkpt lat="42.902166" lon="1.454057">
        <ele>1359.4</ele>
        <time>2013-03-16T13:29:10Z</time>
      </trkpt>
      <trkpt lat="42.902079" lon="1.454004">
        <ele>1355.1</ele>
        <time>2013-03-16T13:29:17Z</time>
      </trkpt>
      <trkpt lat="42.901998" lon="1.453944">
        <ele>1350.3</ele>
        <time>2013-03-16T13:29:24Z</time>
      </trkpt>
      <trkpt lat="42.901908" lon="1.453876">
        <ele>1346.0</ele>
        <time>2013-03-16T13:29:31Z</time>
      </trkpt>
      <trkpt lat="42.901826" lon="1.453819">
        <ele>1342.1</ele>
        <time>2013-03-16T13:29:37Z</time>
      </trkpt>
      <trkpt lat="42.901732" lon="1.453795">
        <ele>1338.3</ele>
        <time>2013-03-16T13:29:43Z</time>
      </trkpt>
      <trkpt lat="42.901647" lon="1.453776">
        <ele>1334.4</ele>
        <time>2013-03-16T13:29:49Z</time>
      </trkpt>
      <trkpt lat="42.901553" lon="1.453737">
        <ele>1330.6</ele>
        <time>2013-03-16T13:29:55Z</time>
      </trkpt>
      <trkpt lat="42.901457" lon="1.453705">
        <ele>1326.8</ele>
        <time>2013-03-16T13:30:01Z</time>
      </trkpt>
      <trkpt lat="42.901366" lon="1.453669">
        <ele>1323.4</ele>
        <time>2013-03-16T13:30:07Z</time>
      </trkpt>
      <trkpt lat="42.901270" lon="1.453676">
        <ele>1319.1</ele>
        <time>2013-03-16T13:30:13Z</time>
      </trkpt>
      <trkpt lat="42.901178" lon="1.453665">
        <ele>1315.7</ele>
        <time>2013-03-16T13:30:19Z</time>
      </trkpt>
      <trkpt lat="42.901082" lon="1.453667">
        <ele>1312.3</ele>
        <time>2013-03-16T13:30:25Z</time>
      </trkpt>
      <trkpt lat="42.900993" lon="1.453679">
        <ele>1309.0</ele>
        <time>2013-03-16T13:30:31Z</time>
      </trkpt>
      <trkpt lat="42.900891" lon="1.453695">
        <ele>1305.6</ele>
        <time>2013-03-16T13:30:38Z</time>
      </trkpt>
      <trkpt lat="42.900802" lon="1.453693">
        <ele>1303.2</ele>
        <time>2013-03-16T13:30:45Z</time>
      </trkpt>
      <trkpt lat="42.900710" lon="1.453683">
        <ele>1299.8</ele>
        <time>2013-03-16T13:30:52Z</time>
      </trkpt>
      <trkpt lat="42.900621" lon="1.453704">
        <ele>1296.5</ele>
        <time>2013-03-16T13:30:59Z</time>
      </trkpt>
      <trkpt lat="42.900540" lon="1.453756">
        <ele>1292.2</ele>
        <time>2013-03-16T13:31:31Z</time>
      </trkpt>
      <trkpt lat="42.900445" lon="1.453718">
        <ele>1288.8</ele>
        <time>2013-03-16T13:31:38Z</time>
      </trkpt>
      <trkpt lat="42.900349" lon="1.453697">
        <ele>1284.9</ele>
        <time>2013-03-16T13:31:45Z</time>
      </trkpt>
      <trkpt lat="42.900243" lon="1.453674">
        <ele>1280.1</ele>
        <time>2013-03-16T13:31:52Z</time>
      </trkpt>
      <trkpt lat="42.900147" lon="1.453656">
        <ele>1276.8</ele>
        <time>2013-03-16T13:32:00Z</time>
      </trkpt>
      <trkpt lat="42.900066" lon="1.453667">
        <ele>1274.4</ele>
        <time>2013-03-16T13:32:33Z</time>
      </trkpt>
      <trkpt lat="42.899979" lon="1.453643">
        <ele>1272.4</ele>
        <time>2013-03-16T13:32:45Z</time>
      </trkpt>
      <trkpt lat="42.899887" lon="1.453615">
        <ele>1269.6</ele>
        <time>2013-03-16T13:32:56Z</time>
      </trkpt>
      <trkpt lat="42.899788" lon="1.453617">
        <ele>1266.7</ele>
        <time>2013-03-16T13:33:06Z</time>
      </trkpt>
      <trkpt lat="42.899697" lon="1.453596">
        <ele>1263.8</ele>
        <time>2013-03-16T13:33:14Z</time>
      </trkpt>
      <trkpt lat="42.899614" lon="1.453560">
        <ele>1260.9</ele>
        <time>2013-03-16T13:33:26Z</time>
      </trkpt>
      <trkpt lat="42.899511" lon="1.453528">
        <ele>1259.5</ele>
        <time>2013-03-16T13:33:37Z</time>
      </trkpt>
      <trkpt lat="42.899417" lon="1.453484">
        <ele>1257.1</ele>
        <time>2013-03-16T13:33:46Z</time>
      </trkpt>
      <trkpt lat="42.899341" lon="1.453446">
        <ele>1254.7</ele>
        <time>2013-03-16T13:34:00Z</time>
      </trkpt>
      <trkpt lat="42.899245" lon="1.453428">
        <ele>1252.7</ele>
        <time>2013-03-16T13:34:09Z</time>
      </trkpt>
      <trkpt lat="42.899196" lon="1.453491">
        <ele>1271.6</ele>
        <time>2013-03-16T13:34:20Z</time>
      </trkpt>
      <trkpt lat="42.899163" lon="1.453560">
        <ele>1248.9</ele>
        <time>2013-03-16T13:35:12Z</time>
      </trkpt>
    </trkseg>
  </trk>
</gpx>

